Observation data for Caprock Canyons on 06/20/2019      Previous  Date  Next       Current Mesonet Observations  Soil Data  Daily Summary Page  Observations in Plain Language
KQU1 200500Z 19007KT 22/19 A2984 RMK A01 T02200185  RH  080%=      5-min Rain = 0
KQU1 200501Z 19007KT 22/19 A2984 RMK A01 T02200185  RH  080%=      5-min Rain = 0
KQU1 200502Z 19007KT 22/19 A2984 RMK A01 T02200185  RH  080%=      5-min Rain = 0
KQU1 200503Z 19007KT 22/19 A2984 RMK A01 T02200185  RH  080%=      5-min Rain = 0
KQU1 200504Z 19008KT 22/19 A2984 RMK A01 T02210185  RH  080%=      5-min Rain = 0
KQU1 200505Z 18008KT 22/19 A2984 RMK A01 T02210186  RH  080%=      5-min Rain = 0
KQU1 200506Z 18008KT 22/19 A2984 RMK A01 T02210186  RH  080%=      5-min Rain = 0
KQU1 200507Z 18007KT 22/19 A2984 RMK A01 T02220186  RH  080%=      5-min Rain = 0
KQU1 200508Z 18008KT 22/19 A2984 RMK A01 T02230186  RH  080%=      5-min Rain = 0
KQU1 200509Z 18008KT 22/19 A2984 RMK A01 T02230186  RH  080%=      5-min Rain = 0
KQU1 200510Z 18007KT 22/19 A2984 RMK A01 T02230186  RH  079%=      5-min Rain = 0
KQU1 200511Z 18007KT 22/19 A2984 RMK A01 T02230186  RH  079%=      5-min Rain = 0
KQU1 200512Z 18006KT 22/19 A2984 RMK A01 T02230186  RH  079%=      5-min Rain = 0
KQU1 200513Z 18006KT 22/19 A2984 RMK A01 T02230186  RH  079%=      5-min Rain = 0
KQU1 200514Z 18007KT 22/19 A2984 RMK A01 T02230186  RH  080%=      5-min Rain = 0
KQU1 200515Z 18007KT 22/19 A2984 RMK A01 T02230186  RH  080%=      5-min Rain = 0
KQU1 200516Z 18007KT 22/19 A2984 RMK A01 T02220186  RH  080%=      5-min Rain = 0
KQU1 200517Z 18007KT 22/19 A2984 RMK A01 T02220186  RH  080%=      5-min Rain = 0
KQU1 200518Z 17007KT 22/19 A2984 RMK A01 T02220186  RH  080%=      5-min Rain = 0
KQU1 200519Z 17006KT 22/19 A2983 RMK A01 T02220185  RH  080%=      5-min Rain = 0
KQU1 200520Z 17006KT 22/19 A2983 RMK A01 T02220185  RH  079%=      5-min Rain = 0
KQU1 200521Z 16008KT 22/18 A2983 RMK A01 T02220184  RH  079%=      5-min Rain = 0
KQU1 200522Z 17007KT 22/18 A2983 RMK A01 T02230184  RH  078%=      5-min Rain = 0
KQU1 200523Z 17007KT 22/18 A2983 RMK A01 T02230184  RH  078%=      5-min Rain = 0
KQU1 200524Z 17007KT 22/19 A2983 RMK A01 T02230185  RH  079%=      5-min Rain = 0
KQU1 200525Z 17007KT 22/18 A2983 RMK A01 T02230184  RH  079%=      5-min Rain = 0
KQU1 200526Z 17007KT 22/18 A2983 RMK A01 T02220184  RH  079%=      5-min Rain = 0
KQU1 200527Z 17006KT 22/19 A2983 RMK A01 T02230185  RH  079%=      5-min Rain = 0
KQU1 200528Z 17007KT 22/19 A2983 RMK A01 T02220185  RH  079%=      5-min Rain = 0
KQU1 200529Z 17007KT 22/18 A2983 RMK A01 T02220184  RH  079%=      5-min Rain = 0
KQU1 200530Z 18007KT 22/19 A2983 RMK A01 T02220185  RH  079%=      5-min Rain = 0
KQU1 200531Z 18007KT 22/19 A2983 RMK A01 T02210185  RH  080%=      5-min Rain = 0
KQU1 200532Z 18007KT 22/19 A2983 RMK A01 T02210185  RH  080%=      5-min Rain = 0
KQU1 200533Z 18007KT 22/19 A2983 RMK A01 T02200185  RH  080%=      5-min Rain = 0
KQU1 200534Z 18006KT 22/19 A2983 RMK A01 T02200185  RH  081%=      5-min Rain = 0
KQU1 200535Z 18006KT 22/19 A2983 RMK A01 T02190185  RH  081%=      5-min Rain = 0
KQU1 200536Z 18006KT 22/19 A2983 RMK A01 T02190185  RH  081%=      5-min Rain = 0
KQU1 200537Z 19007KT 22/19 A2983 RMK A01 T02190185  RH  081%=      5-min Rain = 0
KQU1 200538Z 19007KT 22/19 A2983 RMK A01 T02180185  RH  081%=      5-min Rain = 0
KQU1 200539Z 19007KT 22/19 A2983 RMK A01 T02180185  RH  082%=      5-min Rain = 0
KQU1 200540Z 19007KT 22/19 A2983 RMK A01 T02180185  RH  082%=      5-min Rain = 0
KQU1 200541Z 18006KT 22/19 A2983 RMK A01 T02180185  RH  082%=      5-min Rain = 0
KQU1 200542Z 19006KT 22/19 A2983 RMK A01 T02180185  RH  082%=      5-min Rain = 0
KQU1 200543Z 19007KT 22/19 A2983 RMK A01 T02180185  RH  081%=      5-min Rain = 0
KQU1 200544Z 19007KT 22/19 A2983 RMK A01 T02180186  RH  082%=      5-min Rain = 0
KQU1 200545Z 19007KT 22/19 A2983 RMK A01 T02180185  RH  082%=      5-min Rain = 0
KQU1 200546Z 19007KT 22/19 A2983 RMK A01 T02180185  RH  082%=      5-min Rain = 0
KQU1 200547Z 19007KT 22/19 A2983 RMK A01 T02180186  RH  082%=      5-min Rain = 0
KQU1 200548Z 19007KT 22/19 A2983 RMK A01 T02190186  RH  082%=      5-min Rain = 0
KQU1 200549Z 19006KT 22/19 A2983 RMK A01 T02190186  RH  081%=      5-min Rain = 0
KQU1 200550Z 20006KT 22/19 A2983 RMK A01 T02200186  RH  081%=      5-min Rain = 0
KQU1 200551Z 19007KT 22/19 A2983 RMK A01 T02200186  RH  081%=      5-min Rain = 0
KQU1 200552Z 19007KT 22/19 A2983 RMK A01 T02190186  RH  081%=      5-min Rain = 0
KQU1 200553Z 19008KT 22/19 A2983 RMK A01 T02190186  RH  081%=      5-min Rain = 0
KQU1 200554Z 19008KT 22/19 A2983 RMK A01 T02200186  RH  081%=      5-min Rain = 0
KQU1 200555Z 19008KT 22/19 A2983 RMK A01 T02200186  RH  081%=      5-min Rain = 0
KQU1 200556Z 19008KT 22/19 A2983 RMK A01 T02200186  RH  081%=      5-min Rain = 0
KQU1 200557Z 19009KT 22/19 A2983 RMK A01 T02190186  RH  081%=      5-min Rain = 0
KQU1 200558Z 19008KT 22/19 A2983 RMK A01 T02190186  RH  082%=      5-min Rain = 0
KQU1 200559Z 19008KT 22/19 A2983 RMK A01 T02180186  RH  082%=      5-min Rain = 0
KQU1 200600Z 19008KT 22/19 A2983 RMK A01 T02180186  RH  082%=      5-min Rain = 0
KQU1 200601Z 19008KT 22/19 A2983 RMK A01 T02180186  RH  082%=      5-min Rain = 0
KQU1 200602Z 19009KT 22/19 A2983 RMK A01 T02180186  RH  082%=      5-min Rain = 0
KQU1 200603Z 20009KT 22/19 A2983 RMK A01 T02170186  RH  082%=      5-min Rain = 0
KQU1 200604Z 20009KT 22/19 A2983 RMK A01 T02170186  RH  083%=      5-min Rain = 0
KQU1 200605Z 20009KT 22/19 A2983 RMK A01 T02170187  RH  083%=      5-min Rain = 0
KQU1 200606Z 20009KT 22/19 A2983 RMK A01 T02170186  RH  083%=      5-min Rain = 0
KQU1 200607Z 20009KT 22/19 A2983 RMK A01 T02170186  RH  083%=      5-min Rain = 0
KQU1 200608Z 20009KT 22/19 A2983 RMK A01 T02170186  RH  083%=      5-min Rain = 0
KQU1 200609Z 20010KT 22/19 A2983 RMK A01 T02170186  RH  083%=      5-min Rain = 0
KQU1 200610Z 20010KT 22/19 A2983 RMK A01 T02170186  RH  083%=      5-min Rain = 0
KQU1 200611Z 20009KT 22/19 A2983 RMK A01 T02170186  RH  083%=      5-min Rain = 0
KQU1 200612Z 20009KT 22/19 A2983 RMK A01 T02170186  RH  082%=      5-min Rain = 0
KQU1 200613Z 20009KT 22/19 A2983 RMK A01 T02170186  RH  082%=      5-min Rain = 0
KQU1 200614Z 20009KT 22/19 A2983 RMK A01 T02170186  RH  082%=      5-min Rain = 0
KQU1 200615Z 20009KT 22/19 A2983 RMK A01 T02170186  RH  083%=      5-min Rain = 0
KQU1 200616Z 20009KT 22/19 A2983 RMK A01 T02170186  RH  083%=      5-min Rain = 0
KQU1 200617Z 20009KT 22/19 A2983 RMK A01 T02170186  RH  083%=      5-min Rain = 0
KQU1 200618Z 20009KT 22/19 A2983 RMK A01 T02160186  RH  083%=      5-min Rain = 0
KQU1 200619Z 20009KT 22/19 A2983 RMK A01 T02170186  RH  083%=      5-min Rain = 0
KQU1 200620Z 20009KT 22/19 A2984 RMK A01 T02170186  RH  083%=      5-min Rain = 0
KQU1 200621Z 20009KT 22/19 A2983 RMK A01 T02160186  RH  083%=      5-min Rain = 0
KQU1 200622Z 20009KT 22/19 A2983 RMK A01 T02160186  RH  083%=      5-min Rain = 0
KQU1 200623Z 20008KT 22/19 A2983 RMK A01 T02150186  RH  084%=      5-min Rain = 0
KQU1 200624Z 20008KT 22/19 A2983 RMK A01 T02150186  RH  084%=      5-min Rain = 0
KQU1 200625Z 20008KT 21/19 A2983 RMK A01 T02140186  RH  084%=      5-min Rain = 0
KQU1 200626Z 20008KT 21/19 A2983 RMK A01 T02140186  RH  084%=      5-min Rain = 0
KQU1 200627Z 21008KT 21/19 A2983 RMK A01 T02130186  RH  085%=      5-min Rain = 0
KQU1 200628Z 21008KT 21/19 A2983 RMK A01 T02120186  RH  085%=      5-min Rain = 0
KQU1 200629Z 21008KT 21/19 A2983 RMK A01 T02120185  RH  085%=      5-min Rain = 0
KQU1 200630Z 21007KT 21/19 A2983 RMK A01 T02110185  RH  085%=      5-min Rain = 0
KQU1 200631Z 21007KT 21/19 A2983 RMK A01 T02110186  RH  086%=      5-min Rain = 0
KQU1 200632Z 21007KT 21/19 A2983 RMK A01 T02110186  RH  086%=      5-min Rain = 0
KQU1 200633Z 21007KT 21/19 A2983 RMK A01 T02110186  RH  086%=      5-min Rain = 0
KQU1 200634Z 21008KT 21/19 A2983 RMK A01 T02110186  RH  086%=      5-min Rain = 0
KQU1 200635Z 21007KT 21/19 A2983 RMK A01 T02110186  RH  086%=      5-min Rain = 0
KQU1 200636Z 21007KT 21/19 A2983 RMK A01 T02110186  RH  086%=      5-min Rain = 0
KQU1 200637Z 21007KT 21/19 A2983 RMK A01 T02110186  RH  086%=      5-min Rain = 0
KQU1 200638Z 21007KT 21/19 A2983 RMK A01 T02110186  RH  086%=      5-min Rain = 0
KQU1 200639Z 21007KT 21/19 A2983 RMK A01 T02110186  RH  086%=      5-min Rain = 0
KQU1 200640Z 21007KT 21/19 A2983 RMK A01 T02110186  RH  086%=      5-min Rain = 0
KQU1 200641Z 21007KT 21/19 A2983 RMK A01 T02110186  RH  086%=      5-min Rain = 0
KQU1 200642Z 21007KT 21/19 A2983 RMK A01 T02100186  RH  086%=      5-min Rain = 0
KQU1 200643Z 21007KT 21/19 A2983 RMK A01 T02100186  RH  086%=      5-min Rain = 0
KQU1 200644Z 21008KT 21/19 A2983 RMK A01 T02100186  RH  086%=      5-min Rain = 0
KQU1 200645Z 21008KT 21/19 A2983 RMK A01 T02100186  RH  086%=      5-min Rain = 0
KQU1 200646Z 21008KT 21/19 A2983 RMK A01 T02100186  RH  086%=      5-min Rain = 0
KQU1 200647Z 21008KT 21/19 A2983 RMK A01 T02100186  RH  087%=      5-min Rain = 0
KQU1 200648Z 21008KT 21/19 A2983 RMK A01 T02100187  RH  087%=      5-min Rain = 0
KQU1 200649Z 21008KT 21/19 A2983 RMK A01 T02100187  RH  087%=      5-min Rain = 0
KQU1 200650Z 21008KT 21/19 A2983 RMK A01 T02100187  RH  087%=      5-min Rain = 0
KQU1 200651Z 21008KT 21/19 A2983 RMK A01 T02100187  RH  087%=      5-min Rain = 0
KQU1 200652Z 21008KT 21/19 A2983 RMK A01 T02100187  RH  086%=      5-min Rain = 0
KQU1 200653Z 21008KT 21/19 A2983 RMK A01 T02100187  RH  086%=      5-min Rain = 0
KQU1 200654Z 21008KT 21/19 A2983 RMK A01 T02100187  RH  086%=      5-min Rain = 0
KQU1 200655Z 21008KT 21/19 A2983 RMK A01 T02110187  RH  086%=      5-min Rain = 0
KQU1 200656Z 21008KT 21/19 A2983 RMK A01 T02110187  RH  086%=      5-min Rain = 0
KQU1 200657Z 21008KT 21/19 A2982 RMK A01 T02110187  RH  086%=      5-min Rain = 0
KQU1 200658Z 21008KT 21/19 A2982 RMK A01 T02120186  RH  086%=      5-min Rain = 0
KQU1 200659Z 21008KT 21/19 A2982 RMK A01 T02120187  RH  085%=      5-min Rain = 0
KQU1 200700Z 21008KT 21/19 A2982 RMK A01 T02130186  RH  085%=      5-min Rain = 0
KQU1 200701Z 21009KT 21/19 A2982 RMK A01 T02130186  RH  085%=      5-min Rain = 0
KQU1 200702Z 21008KT 21/19 A2982 RMK A01 T02130186  RH  084%=      5-min Rain = 0
KQU1 200703Z 21008KT 21/19 A2982 RMK A01 T02130186  RH  084%=      5-min Rain = 0
KQU1 200704Z 21008KT 21/19 A2982 RMK A01 T02130185  RH  084%=      5-min Rain = 0
KQU1 200705Z 21008KT 21/19 A2982 RMK A01 T02130185  RH  084%=      5-min Rain = 0
KQU1 200706Z 21008KT 21/19 A2982 RMK A01 T02130185  RH  084%=      5-min Rain = 0
KQU1 200707Z 21008KT 21/19 A2982 RMK A01 T02130185  RH  084%=      5-min Rain = 0
KQU1 200708Z 21007KT 21/19 A2982 RMK A01 T02130185  RH  084%=      5-min Rain = 0
KQU1 200709Z 21008KT 21/19 A2982 RMK A01 T02120185  RH  084%=      5-min Rain = 0
KQU1 200710Z 21008KT 21/19 A2982 RMK A01 T02120185  RH  084%=      5-min Rain = 0
KQU1 200711Z 21008KT 21/18 A2982 RMK A01 T02120184  RH  084%=      5-min Rain = 0
KQU1 200712Z 21008KT 21/18 A2982 RMK A01 T02120184  RH  084%=      5-min Rain = 0
KQU1 200713Z 21008KT 21/18 A2982 RMK A01 T02120184  RH  084%=      5-min Rain = 0
KQU1 200714Z 21008KT 21/18 A2982 RMK A01 T02110184  RH  084%=      5-min Rain = 0
KQU1 200715Z 21008KT 21/18 A2982 RMK A01 T02110184  RH  084%=      5-min Rain = 0
KQU1 200716Z 21007KT 21/18 A2982 RMK A01 T02110184  RH  085%=      5-min Rain = 0
KQU1 200717Z 21007KT 21/18 A2982 RMK A01 T02100184  RH  085%=      5-min Rain = 0
KQU1 200718Z 21007KT 21/18 A2982 RMK A01 T02100184  RH  085%=      5-min Rain = 0
KQU1 200719Z 21008KT 21/18 A2982 RMK A01 T02100184  RH  085%=      5-min Rain = 0
KQU1 200720Z 21007KT 21/18 A2982 RMK A01 T02100184  RH  085%=      5-min Rain = 0
KQU1 200721Z 20007KT 21/18 A2982 RMK A01 T02100184  RH  085%=      5-min Rain = 0
KQU1 200722Z 20007KT 21/18 A2982 RMK A01 T02100184  RH  085%=      5-min Rain = 0
KQU1 200723Z 20008KT 21/18 A2982 RMK A01 T02090184  RH  085%=      5-min Rain = 0
KQU1 200724Z 20008KT 21/18 A2982 RMK A01 T02090184  RH  085%=      5-min Rain = 0
KQU1 200725Z 20008KT 21/18 A2982 RMK A01 T02090184  RH  085%=      5-min Rain = 0
KQU1 200726Z 20008KT 21/18 A2982 RMK A01 T02090184  RH  085%=      5-min Rain = 0
KQU1 200727Z 21008KT 21/18 A2982 RMK A01 T02090184  RH  085%=      5-min Rain = 0
KQU1 200728Z 21009KT 21/18 A2982 RMK A01 T02090183  RH  085%=      5-min Rain = 0
KQU1 200729Z 20008KT 21/18 A2982 RMK A01 T02090183  RH  085%=      5-min Rain = 0
KQU1 200730Z 20008KT 21/18 A2982 RMK A01 T02090184  RH  085%=      5-min Rain = 0
KQU1 200731Z 20009KT 21/18 A2982 RMK A01 T02090184  RH  085%=      5-min Rain = 0
KQU1 200732Z 20009KT 21/18 A2982 RMK A01 T02100184  RH  085%=      5-min Rain = 0
KQU1 200733Z 20009KT 21/18 A2982 RMK A01 T02110184  RH  085%=      5-min Rain = 0
KQU1 200734Z 20008KT 21/18 A2982 RMK A01 T02110184  RH  084%=      5-min Rain = 0
KQU1 200735Z 20009KT 21/18 A2982 RMK A01 T02110184  RH  084%=      5-min Rain = 0
KQU1 200736Z 20008KT 21/18 A2982 RMK A01 T02110184  RH  084%=      5-min Rain = 0
KQU1 200737Z 20008KT 21/18 A2982 RMK A01 T02110184  RH  084%=      5-min Rain = 0
KQU1 200738Z 20008KT 21/18 A2982 RMK A01 T02110184  RH  084%=      5-min Rain = 0
KQU1 200739Z 20008KT 21/18 A2982 RMK A01 T02110183  RH  084%=      5-min Rain = 0
KQU1 200740Z 20008KT 21/18 A2982 RMK A01 T02100183  RH  085%=      5-min Rain = 0
KQU1 200741Z 20009KT 21/18 A2982 RMK A01 T02100183  RH  085%=      5-min Rain = 0
KQU1 200742Z 20009KT 21/18 A2982 RMK A01 T02100183  RH  085%=      5-min Rain = 0
KQU1 200743Z 20009KT 21/18 A2982 RMK A01 T02100183  RH  085%=      5-min Rain = 0
KQU1 200744Z 20010KT 21/18 A2983 RMK A01 T02090184  RH  085%=      5-min Rain = 0
KQU1 200745Z 20010KT 21/18 A2983 RMK A01 T02090184  RH  085%=      5-min Rain = 0
KQU1 200746Z 20010KT 21/18 A2983 RMK A01 T02090184  RH  085%=      5-min Rain = 0
KQU1 200747Z 20010KT 21/18 A2983 RMK A01 T02090184  RH  085%=      5-min Rain = 0
KQU1 200748Z 20010KT 21/18 A2983 RMK A01 T02100184  RH  085%=      5-min Rain = 0
KQU1 200749Z 20010KT 21/18 A2983 RMK A01 T02100184  RH  085%=      5-min Rain = 0
KQU1 200750Z 19010KT 21/18 A2983 RMK A01 T02100184  RH  085%=      5-min Rain = 0
KQU1 200751Z 19010KT 21/18 A2983 RMK A01 T02090184  RH  085%=      5-min Rain = 0
KQU1 200752Z 19010KT 21/18 A2983 RMK A01 T02090184  RH  085%=      5-min Rain = 0
KQU1 200753Z 19009KT 21/18 A2983 RMK A01 T02090184  RH  086%=      5-min Rain = 0
KQU1 200754Z 19009KT 21/18 A2982 RMK A01 T02090184  RH  086%=      5-min Rain = 0
KQU1 200755Z 19009KT 21/18 A2983 RMK A01 T02090184  RH  086%=      5-min Rain = 0
KQU1 200756Z 19009KT 21/18 A2983 RMK A01 T02090184  RH  086%=      5-min Rain = 0
KQU1 200757Z 19009KT 21/18 A2983 RMK A01 T02090184  RH  086%=      5-min Rain = 0
KQU1 200758Z 19009KT 21/18 A2983 RMK A01 T02080184  RH  086%=      5-min Rain = 0
KQU1 200759Z 19009KT 21/18 A2983 RMK A01 T02080184  RH  086%=      5-min Rain = 0
KQU1 200800Z 19009KT 21/18 A2983 RMK A01 T02080184  RH  086%=      5-min Rain = 0
KQU1 200801Z 19009KT 21/18 A2983 RMK A01 T02070184  RH  086%=      5-min Rain = 0
KQU1 200802Z 19008KT 21/18 A2983 RMK A01 T02070184  RH  086%=      5-min Rain = 0
KQU1 200803Z 19008KT 21/18 A2982 RMK A01 T02070184  RH  087%=      5-min Rain = 0
KQU1 200804Z 19008KT 21/18 A2982 RMK A01 T02070184  RH  087%=      5-min Rain = 0
KQU1 200805Z 19008KT 21/18 A2983 RMK A01 T02070184  RH  087%=      5-min Rain = 0
KQU1 200806Z 19008KT 21/18 A2983 RMK A01 T02060183  RH  087%=      5-min Rain = 0
KQU1 200807Z 19008KT 21/18 A2982 RMK A01 T02050183  RH  087%=      5-min Rain = 0
KQU1 200808Z 19009KT 21/18 A2982 RMK A01 T02050183  RH  087%=      5-min Rain = 0
KQU1 200809Z 19008KT 21/18 A2982 RMK A01 T02050184  RH  087%=      5-min Rain = 0
KQU1 200810Z 19008KT 21/18 A2982 RMK A01 T02050184  RH  088%=      5-min Rain = 0
KQU1 200811Z 19009KT 21/18 A2982 RMK A01 T02050184  RH  088%=      5-min Rain = 0
KQU1 200812Z 19009KT 21/18 A2982 RMK A01 T02050184  RH  088%=      5-min Rain = 0
KQU1 200813Z 19009KT 21/19 A2982 RMK A01 T02050185  RH  088%=      5-min Rain = 0
KQU1 200814Z 19009KT 21/19 A2982 RMK A01 T02050185  RH  088%=      5-min Rain = 0
KQU1 200815Z 19009KT 21/19 A2982 RMK A01 T02050185  RH  088%=      5-min Rain = 0
KQU1 200816Z 19009KT 21/18 A2982 RMK A01 T02050184  RH  088%=      5-min Rain = 0
KQU1 200817Z 19009KT 20/18 A2982 RMK A01 T02040184  RH  088%=      5-min Rain = 0
KQU1 200818Z 19010KT 20/18 A2982 RMK A01 T02040184  RH  088%=      5-min Rain = 0
KQU1 200819Z 19010KT 20/18 A2982 RMK A01 T02040184  RH  088%=      5-min Rain = 0
KQU1 200820Z 19010KT 20/18 A2982 RMK A01 T02040184  RH  088%=      5-min Rain = 0
KQU1 200821Z 19010KT 20/19 A2982 RMK A01 T02040185  RH  088%=      5-min Rain = 0
KQU1 200822Z 19010KT 21/19 A2982 RMK A01 T02050185  RH  088%=      5-min Rain = 0
KQU1 200823Z 19011KT 21/19 A2982 RMK A01 T02050185  RH  088%=      5-min Rain = 0
KQU1 200824Z 19011KT 21/19 A2982 RMK A01 T02060185  RH  088%=      5-min Rain = 0
KQU1 200825Z 19011KT 21/19 A2982 RMK A01 T02070186  RH  088%=      5-min Rain = 0
KQU1 200826Z 19011KT 21/19 A2982 RMK A01 T02070186  RH  088%=      5-min Rain = 0
KQU1 200827Z 19011KT 21/19 A2982 RMK A01 T02080186  RH  087%=      5-min Rain = 0
KQU1 200828Z 19010KT 21/19 A2982 RMK A01 T02080186  RH  087%=      5-min Rain = 0
KQU1 200829Z 19010KT 21/19 A2982 RMK A01 T02080186  RH  087%=      5-min Rain = 0
KQU1 200830Z 19010KT 21/19 A2982 RMK A01 T02080186  RH  087%=      5-min Rain = 0
KQU1 200831Z 19010KT 21/19 A2982 RMK A01 T02080186  RH  088%=      5-min Rain = 0
KQU1 200832Z 19011KT 21/19 A2982 RMK A01 T02080186  RH  088%=      5-min Rain = 0
KQU1 200833Z 19010KT 21/19 A2982 RMK A01 T02070186  RH  088%=      5-min Rain = 0
KQU1 200834Z 19010KT 21/19 A2982 RMK A01 T02070186  RH  088%=      5-min Rain = 0
KQU1 200835Z 19009KT 21/19 A2982 RMK A01 T02070186  RH  088%=      5-min Rain = 0
KQU1 200836Z 19010KT 21/19 A2982 RMK A01 T02070186  RH  088%=      5-min Rain = 0
KQU1 200837Z 19010KT 21/19 A2982 RMK A01 T02060186  RH  088%=      5-min Rain = 0
KQU1 200838Z 19010KT 21/19 A2982 RMK A01 T02060186  RH  088%=      5-min Rain = 0
KQU1 200839Z 19009KT 21/19 A2982 RMK A01 T02060186  RH  088%=      5-min Rain = 0
KQU1 200840Z 19009KT 21/19 A2982 RMK A01 T02050186  RH  088%=      5-min Rain = 0
KQU1 200841Z 19009KT 21/19 A2982 RMK A01 T02050185  RH  089%=      5-min Rain = 0
KQU1 200842Z 19009KT 21/19 A2982 RMK A01 T02050185  RH  089%=      5-min Rain = 0
KQU1 200843Z 20009KT 21/19 A2982 RMK A01 T02050185  RH  089%=      5-min Rain = 0
KQU1 200844Z 19009KT 20/19 A2982 RMK A01 T02040185  RH  089%=      5-min Rain = 0
KQU1 200845Z 19009KT 20/19 A2982 RMK A01 T02040185  RH  089%=      5-min Rain = 0
KQU1 200846Z 20009KT 20/19 A2982 RMK A01 T02030185  RH  089%=      5-min Rain = 0
KQU1 200847Z 20009KT 20/18 A2982 RMK A01 T02020184  RH  089%=      5-min Rain = 0
KQU1 200848Z 20009KT 20/18 A2982 RMK A01 T02020184  RH  089%=      5-min Rain = 0
KQU1 200849Z 20009KT 20/18 A2982 RMK A01 T02020184  RH  090%=      5-min Rain = 0
KQU1 200850Z 20009KT 20/18 A2982 RMK A01 T02020184  RH  090%=      5-min Rain = 0
KQU1 200851Z 20009KT 20/18 A2982 RMK A01 T02020184  RH  090%=      5-min Rain = 0
KQU1 200852Z 20009KT 20/18 A2982 RMK A01 T02020184  RH  090%=      5-min Rain = 0
KQU1 200853Z 20009KT 20/18 A2982 RMK A01 T02020184  RH  090%=      5-min Rain = 0
KQU1 200854Z 20009KT 20/18 A2982 RMK A01 T02010184  RH  090%=      5-min Rain = 0
KQU1 200855Z 20010KT 20/18 A2982 RMK A01 T02020184  RH  090%=      5-min Rain = 0
KQU1 200856Z 20010KT 20/19 A2982 RMK A01 T02020185  RH  090%=      5-min Rain = 0
KQU1 200857Z 20010KT 20/19 A2982 RMK A01 T02020185  RH  090%=      5-min Rain = 0
KQU1 200858Z 20010KT 20/19 A2982 RMK A01 T02030185  RH  089%=      5-min Rain = 0
KQU1 200859Z 20009KT 20/19 A2982 RMK A01 T02030185  RH  089%=      5-min Rain = 0
KQU1 200900Z 20009KT 20/19 A2982 RMK A01 T02030185  RH  089%=      5-min Rain = 0
KQU1 200901Z 20009KT 20/18 A2982 RMK A01 T02030184  RH  089%=      5-min Rain = 0
KQU1 200902Z 20009KT 20/18 A2982 RMK A01 T02020184  RH  089%=      5-min Rain = 0
KQU1 200903Z 20009KT 20/18 A2982 RMK A01 T02020184  RH  089%=      5-min Rain = 0
KQU1 200904Z 20009KT 20/18 A2982 RMK A01 T02010183  RH  089%=      5-min Rain = 0
KQU1 200905Z 20009KT 20/18 A2982 RMK A01 T02010183  RH  090%=      5-min Rain = 0
KQU1 200906Z 20008KT 20/18 A2981 RMK A01 T02000183  RH  090%=      5-min Rain = 0
KQU1 200907Z 20008KT 20/18 A2981 RMK A01 T02000182  RH  090%=      5-min Rain = 0
KQU1 200908Z 20009KT 20/18 A2981 RMK A01 T01990182  RH  090%=      5-min Rain = 0
KQU1 200909Z 20009KT 20/18 A2981 RMK A01 T01980182  RH  090%=      5-min Rain = 0
KQU1 200910Z 20009KT 20/18 A2981 RMK A01 T01980182  RH  090%=      5-min Rain = 0
KQU1 200911Z 20009KT 20/18 A2981 RMK A01 T01980182  RH  091%=      5-min Rain = 0
KQU1 200912Z 20009KT 20/18 A2981 RMK A01 T01980182  RH  091%=      5-min Rain = 0
KQU1 200913Z 20009KT 20/18 A2981 RMK A01 T01980182  RH  091%=      5-min Rain = 0
KQU1 200914Z 20009KT 20/18 A2981 RMK A01 T01980182  RH  091%=      5-min Rain = 0
KQU1 200915Z 21009KT 20/18 A2981 RMK A01 T01980182  RH  091%=      5-min Rain = 0
KQU1 200916Z 20009KT 20/18 A2981 RMK A01 T01980182  RH  091%=      5-min Rain = 0
KQU1 200917Z 21009KT 20/18 A2981 RMK A01 T01980182  RH  091%=      5-min Rain = 0
KQU1 200918Z 21009KT 20/18 A2981 RMK A01 T01980182  RH  091%=      5-min Rain = 0
KQU1 200919Z 21009KT 20/18 A2981 RMK A01 T01980183  RH  091%=      5-min Rain = 0
KQU1 200920Z 21009KT 20/18 A2981 RMK A01 T01990183  RH  091%=      5-min Rain = 0
KQU1 200921Z 21009KT 20/18 A2981 RMK A01 T01990183  RH  091%=      5-min Rain = 0
KQU1 200922Z 20008KT 20/18 A2981 RMK A01 T02000184  RH  090%=      5-min Rain = 0
KQU1 200923Z 20008KT 20/18 A2981 RMK A01 T02000184  RH  090%=      5-min Rain = 0
KQU1 200924Z 20008KT 20/18 A2981 RMK A01 T02010184  RH  090%=      5-min Rain = 0
KQU1 200925Z 20008KT 20/18 A2981 RMK A01 T02010184  RH  090%=      5-min Rain = 0
KQU1 200926Z 20009KT 20/18 A2981 RMK A01 T02010183  RH  090%=      5-min Rain = 0
KQU1 200927Z 20009KT 20/18 A2981 RMK A01 T02010183  RH  090%=      5-min Rain = 0
KQU1 200928Z 20009KT 20/18 A298 RMK A01 T02000183  RH  090%=      5-min Rain = 0
KQU1 200929Z 20009KT 20/18 A298 RMK A01 T02000182  RH  090%=      5-min Rain = 0
KQU1 200930Z 20009KT 20/18 A298 RMK A01 T01990182  RH  090%=      5-min Rain = 0
KQU1 200931Z 20010KT 20/18 A298 RMK A01 T01990182  RH  090%=      5-min Rain = 0
KQU1 200932Z 20010KT 20/18 A298 RMK A01 T01980182  RH  090%=      5-min Rain = 0
KQU1 200933Z 20010KT 20/18 A298 RMK A01 T01980182  RH  090%=      5-min Rain = 0
KQU1 200934Z 20010KT 20/18 A298 RMK A01 T01980182  RH  090%=      5-min Rain = 0
KQU1 200935Z 20010KT 20/18 A298 RMK A01 T01980182  RH  090%=      5-min Rain = 0
KQU1 200936Z 20010KT 20/18 A298 RMK A01 T01980182  RH  090%=      5-min Rain = 0
KQU1 200937Z 20009KT 20/18 A298 RMK A01 T01990183  RH  090%=      5-min Rain = 0
KQU1 200938Z 20010KT 20/18 A298 RMK A01 T01990183  RH  090%=      5-min Rain = 0
KQU1 200939Z 20009KT 20/18 A298 RMK A01 T01990183  RH  090%=      5-min Rain = 0
KQU1 200940Z 21009KT 20/18 A298 RMK A01 T01990182  RH  090%=      5-min Rain = 0
KQU1 200941Z 21009KT 20/18 A298 RMK A01 T01990182  RH  090%=      5-min Rain = 0
KQU1 200942Z 21010KT 20/18 A298 RMK A01 T02000183  RH  090%=      5-min Rain = 0
KQU1 200943Z 21010KT 20/18 A298 RMK A01 T02000183  RH  090%=      5-min Rain = 0
KQU1 200944Z 21010KT 20/18 A298 RMK A01 T02010184  RH  090%=      5-min Rain = 0
KQU1 200945Z 21009KT 20/18 A298 RMK A01 T02020184  RH  089%=      5-min Rain = 0
KQU1 200946Z 21009KT 20/18 A298 RMK A01 T02030184  RH  089%=      5-min Rain = 0
KQU1 200947Z 21009KT 20/19 A298 RMK A01 T02040185  RH  089%=      5-min Rain = 0
KQU1 200948Z 20009KT 20/19 A298 RMK A01 T02040185  RH  088%=      5-min Rain = 0
KQU1 200949Z 21009KT 21/19 A298 RMK A01 T02050185  RH  088%=      5-min Rain = 0
KQU1 200950Z 20009KT 21/19 A298 RMK A01 T02050185  RH  088%=      5-min Rain = 0
KQU1 200951Z 20009KT 21/19 A298 RMK A01 T02050185  RH  088%=      5-min Rain = 0
KQU1 200952Z 20009KT 21/19 A298 RMK A01 T02060185  RH  088%=      5-min Rain = 0
KQU1 200953Z 20009KT 21/19 A298 RMK A01 T02060185  RH  088%=      5-min Rain = 0
KQU1 200954Z 21009KT 21/19 A298 RMK A01 T02060185  RH  087%=      5-min Rain = 0
KQU1 200955Z 20009KT 21/19 A298 RMK A01 T02070185  RH  087%=      5-min Rain = 0
KQU1 200956Z 21008KT 21/19 A298 RMK A01 T02070185  RH  087%=      5-min Rain = 0
KQU1 200957Z 21009KT 21/19 A298 RMK A01 T02070185  RH  087%=      5-min Rain = 0
KQU1 200958Z 21009KT 21/19 A298 RMK A01 T02080185  RH  087%=      5-min Rain = 0
KQU1 200959Z 21009KT 21/19 A298 RMK A01 T02080185  RH  087%=      5-min Rain = 0
KQU1 201000Z 21010KT 21/19 A298 RMK A01 T02080185  RH  087%=      5-min Rain = 0
KQU1 201001Z 21010KT 21/19 A298 RMK A01 T02090185  RH  087%=      5-min Rain = 0
KQU1 201002Z 21009KT 21/19 A298 RMK A01 T02090185  RH  086%=      5-min Rain = 0
KQU1 201003Z 21008KT 21/19 A298 RMK A01 T02090185  RH  086%=      5-min Rain = 0
KQU1 201004Z 21008KT 21/19 A298 RMK A01 T02090185  RH  086%=      5-min Rain = 0
KQU1 201005Z 21008KT 21/19 A298 RMK A01 T02090185  RH  086%=      5-min Rain = 0
KQU1 201006Z 21008KT 21/19 A298 RMK A01 T02090185  RH  086%=      5-min Rain = 0
KQU1 201007Z 21008KT 21/19 A298 RMK A01 T02090185  RH  086%=      5-min Rain = 0
KQU1 201008Z 21007KT 21/19 A298 RMK A01 T02090185  RH  086%=      5-min Rain = 0
KQU1 201009Z 20007KT 21/19 A298 RMK A01 T02090185  RH  086%=      5-min Rain = 0
KQU1 201010Z 20007KT 21/19 A298 RMK A01 T02090185  RH  086%=      5-min Rain = 0
KQU1 201011Z 20007KT 21/19 A298 RMK A01 T02090185  RH  086%=      5-min Rain = 0
KQU1 201012Z 20007KT 21/19 A298 RMK A01 T02080185  RH  086%=      5-min Rain = 0
KQU1 201013Z 20008KT 21/18 A298 RMK A01 T02080184  RH  086%=      5-min Rain = 0
KQU1 201014Z 20008KT 21/18 A298 RMK A01 T02070184  RH  087%=      5-min Rain = 0
KQU1 201015Z 20008KT 21/18 A298 RMK A01 T02070184  RH  087%=      5-min Rain = 0
KQU1 201016Z 20008KT 21/18 A298 RMK A01 T02060184  RH  087%=      5-min Rain = 0
KQU1 201017Z 20008KT 21/18 A298 RMK A01 T02050183  RH  087%=      5-min Rain = 0
KQU1 201018Z 20008KT 21/18 A298 RMK A01 T02050183  RH  087%=      5-min Rain = 0
KQU1 201019Z 20008KT 21/18 A298 RMK A01 T02050183  RH  088%=      5-min Rain = 0
KQU1 201020Z 20007KT 20/18 A298 RMK A01 T02040183  RH  088%=      5-min Rain = 0
KQU1 201021Z 20007KT 20/18 A298 RMK A01 T02040183  RH  088%=      5-min Rain = 0
KQU1 201022Z 20006KT 20/18 A298 RMK A01 T02040183  RH  088%=      5-min Rain = 0
KQU1 201023Z 20006KT 20/18 A298 RMK A01 T02030183  RH  088%=      5-min Rain = 0
KQU1 201024Z 20006KT 20/18 A298 RMK A01 T02030183  RH  088%=      5-min Rain = 0
KQU1 201025Z 20006KT 20/18 A298 RMK A01 T02030183  RH  088%=      5-min Rain = 0
KQU1 201026Z 19007KT 20/18 A298 RMK A01 T02020182  RH  088%=      5-min Rain = 0
KQU1 201027Z 19007KT 20/18 A298 RMK A01 T02020182  RH  088%=      5-min Rain = 0
KQU1 201028Z 19006KT 20/18 A298 RMK A01 T02020182  RH  088%=      5-min Rain = 0
KQU1 201029Z 20006KT 20/18 A298 RMK A01 T02010182  RH  088%=      5-min Rain = 0
KQU1 201030Z 19006KT 20/18 A298 RMK A01 T02010181  RH  089%=      5-min Rain = 0
KQU1 201031Z 19006KT 20/18 A298 RMK A01 T02000181  RH  089%=      5-min Rain = 0
KQU1 201032Z 19006KT 20/18 A298 RMK A01 T02000181  RH  089%=      5-min Rain = 0
KQU1 201033Z 20005KT 20/18 A298 RMK A01 T01990181  RH  089%=      5-min Rain = 0
KQU1 201034Z 20005KT 20/18 A298 RMK A01 T01990181  RH  089%=      5-min Rain = 0
KQU1 201035Z 20005KT 20/18 A298 RMK A01 T01990180  RH  089%=      5-min Rain = 0
KQU1 201036Z 20004KT 20/18 A298 RMK A01 T01980180  RH  089%=      5-min Rain = 0
KQU1 201037Z 20004KT 20/18 A298 RMK A01 T01980180  RH  089%=      5-min Rain = 0
KQU1 201038Z 20004KT 20/18 A298 RMK A01 T01980180  RH  089%=      5-min Rain = 0
KQU1 201039Z 20004KT 20/18 A298 RMK A01 T01970179  RH  089%=      5-min Rain = 0
KQU1 201040Z 20004KT 20/18 A2981 RMK A01 T01970179  RH  089%=      5-min Rain = 0
KQU1 201041Z 20003KT 20/18 A2981 RMK A01 T01970179  RH  089%=      5-min Rain = 0
KQU1 201042Z 20003KT 20/18 A2981 RMK A01 T01970179  RH  090%=      5-min Rain = 0
KQU1 201043Z 20003KT 20/18 A2981 RMK A01 T01960179  RH  090%=      5-min Rain = 0
KQU1 201044Z 20003KT 20/18 A2981 RMK A01 T01960179  RH  090%=      5-min Rain = 0
KQU1 201045Z 20003KT 20/18 A2981 RMK A01 T01960179  RH  090%=      5-min Rain = 0
KQU1 201046Z 20002KT 20/18 A2981 RMK A01 T01960179  RH  090%=      5-min Rain = 0
KQU1 201047Z 20002KT 20/18 A2981 RMK A01 T01950178  RH  090%=      5-min Rain = 0
KQU1 201048Z 20002KT 20/18 A2981 RMK A01 T01950178  RH  090%=      5-min Rain = 0
KQU1 201049Z 20002KT 20/18 A2981 RMK A01 T01950178  RH  090%=      5-min Rain = 0
KQU1 201050Z 20002KT 20/18 A2981 RMK A01 T01950178  RH  090%=      5-min Rain = 0
KQU1 201051Z 20002KT 20/18 A2981 RMK A01 T01950179  RH  090%=      5-min Rain = 0
KQU1 201052Z 20002KT 20/18 A2981 RMK A01 T01950179  RH  090%=      5-min Rain = 0
KQU1 201053Z 19002KT 20/18 A2981 RMK A01 T01950179  RH  091%=      5-min Rain = 0
KQU1 201054Z 19002KT 20/18 A2981 RMK A01 T01950180  RH  091%=      5-min Rain = 0
KQU1 201055Z 18002KT 20/18 A2981 RMK A01 T01960181  RH  091%=      5-min Rain = 0
KQU1 201056Z 17003KT 20/18 A2981 RMK A01 T01970182  RH  091%=      5-min Rain = 0
KQU1 201057Z 17003KT 20/18 A2981 RMK A01 T01980182  RH  091%=      5-min Rain = 0
KQU1 201058Z 17003KT 20/18 A2981 RMK A01 T01990183  RH  090%=      5-min Rain = 0
KQU1 201059Z 17003KT 20/18 A2981 RMK A01 T02000183  RH  090%=      5-min Rain = 0
KQU1 201100Z 18003KT 20/18 A2981 RMK A01 T02010182  RH  089%=      5-min Rain = 0
KQU1 201101Z 18003KT 20/18 A298 RMK A01 T02010181  RH  089%=      5-min Rain = 0
KQU1 201102Z 18004KT 20/18 A298 RMK A01 T02000179  RH  088%=      5-min Rain = 0
KQU1 201103Z 18004KT 20/18 A298 RMK A01 T01980178  RH  088%=      5-min Rain = 0
KQU1 201104Z 18004KT 20/18 A298 RMK A01 T01970177  RH  088%=      5-min Rain = 0
KQU1 201105Z 18004KT 20/18 A298 RMK A01 T01960178  RH  089%=      5-min Rain = 0
KQU1 201106Z 18004KT 20/18 A298 RMK A01 T01960177  RH  089%=      5-min Rain = 0
KQU1 201107Z 19004KT 20/18 A298 RMK A01 T01950177  RH  089%=      5-min Rain = 0
KQU1 201108Z 19004KT 20/18 A298 RMK A01 T01950177  RH  089%=      5-min Rain = 0
KQU1 201109Z 20004KT 20/18 A298 RMK A01 T01950177  RH  089%=      5-min Rain = 0
KQU1 201110Z 20004KT 20/18 A298 RMK A01 T01950177  RH  089%=      5-min Rain = 0
KQU1 201111Z 19004KT 19/18 A298 RMK A01 T01940177  RH  089%=      5-min Rain = 0
KQU1 201112Z 19004KT 19/18 A298 RMK A01 T01940177  RH  090%=      5-min Rain = 0
KQU1 201113Z 18003KT 19/18 A298 RMK A01 T01940176  RH  090%=      5-min Rain = 0
KQU1 201114Z 17003KT 19/18 A298 RMK A01 T01930176  RH  090%=      5-min Rain = 0
KQU1 201115Z 17003KT 19/18 A298 RMK A01 T01930176  RH  090%=      5-min Rain = 0
KQU1 201116Z 18003KT 19/18 A298 RMK A01 T01930175  RH  090%=      5-min Rain = 0
KQU1 201117Z 18003KT 19/18 A298 RMK A01 T01920175  RH  090%=      5-min Rain = 0
KQU1 201118Z 18003KT 19/18 A298 RMK A01 T01920175  RH  090%=      5-min Rain = 0
KQU1 201119Z 18003KT 19/18 A298 RMK A01 T01920176  RH  090%=      5-min Rain = 0
KQU1 201120Z 18003KT 19/18 A298 RMK A01 T01920176  RH  091%=      5-min Rain = 0
KQU1 201121Z 19003KT 19/18 A298 RMK A01 T01920176  RH  090%=      5-min Rain = 0
KQU1 201122Z 20004KT 19/18 A298 RMK A01 T01920176  RH  090%=      5-min Rain = 0
KQU1 201123Z 20004KT 19/18 A298 RMK A01 T01920176  RH  090%=      5-min Rain = 0
KQU1 201124Z 19004KT 19/18 A298 RMK A01 T01920176  RH  090%=      5-min Rain = 0
KQU1 201125Z 19004KT 19/18 A298 RMK A01 T01920177  RH  091%=      5-min Rain = 0
KQU1 201126Z 19004KT 19/18 A298 RMK A01 T01940179  RH  091%=      5-min Rain = 0
KQU1 201127Z 18005KT 19/18 A298 RMK A01 T01940177  RH  090%=      5-min Rain = 0
KQU1 201128Z 19005KT 19/18 A298 RMK A01 T01940176  RH  090%=      5-min Rain = 0
KQU1 201129Z 19005KT 19/18 A298 RMK A01 T01930176  RH  090%=      5-min Rain = 0
KQU1 201130Z 19005KT 19/18 A298 RMK A01 T01930177  RH  090%=      5-min Rain = 0
KQU1 201131Z 19005KT 19/18 A298 RMK A01 T01940177  RH  090%=      5-min Rain = 0
KQU1 201132Z 19005KT 19/18 A298 RMK A01 T01940177  RH  090%=      5-min Rain = 0
KQU1 201133Z 19005KT 19/18 A298 RMK A01 T01940177  RH  090%=      5-min Rain = 0
KQU1 201134Z 19004KT 19/18 A298 RMK A01 T01940177  RH  090%=      5-min Rain = 0
KQU1 201135Z 19004KT 19/18 A298 RMK A01 T01940178  RH  090%=      5-min Rain = 0
KQU1 201136Z 19004KT 19/18 A298 RMK A01 T01940177  RH  090%=      5-min Rain = 0
KQU1 201137Z 18003KT 19/18 A298 RMK A01 T01940178  RH  090%=      5-min Rain = 0
KQU1 201138Z 19003KT 20/18 A298 RMK A01 T01950178  RH  090%=      5-min Rain = 0
KQU1 201139Z 19003KT 20/18 A298 RMK A01 T01950178  RH  090%=      5-min Rain = 0
KQU1 201140Z 19003KT 20/18 A298 RMK A01 T01950178  RH  090%=      5-min Rain = 0
KQU1 201141Z 19003KT 20/18 A298 RMK A01 T01950178  RH  090%=      5-min Rain = 0
KQU1 201142Z 19003KT 20/18 A298 RMK A01 T01950178  RH  089%=      5-min Rain = 0
KQU1 201143Z 20003KT 20/18 A298 RMK A01 T01950177  RH  089%=      5-min Rain = 0
KQU1 201144Z 20003KT 20/18 A298 RMK A01 T01950177  RH  089%=      5-min Rain = 0
KQU1 201145Z 20003KT 20/18 A298 RMK A01 T01950177  RH  089%=      5-min Rain = 0
KQU1 201146Z 20004KT 20/18 A298 RMK A01 T01950177  RH  089%=      5-min Rain = 0
KQU1 201147Z 20004KT 20/18 A298 RMK A01 T01950177  RH  090%=      5-min Rain = 0
KQU1 201148Z 20004KT 20/18 A298 RMK A01 T01950178  RH  090%=      5-min Rain = 0
KQU1 201149Z 19003KT 20/18 A298 RMK A01 T01950178  RH  090%=      5-min Rain = 0
KQU1 201150Z 19003KT 20/18 A298 RMK A01 T01950177  RH  090%=      5-min Rain = 0
KQU1 201151Z 19003KT 20/18 A298 RMK A01 T01950177  RH  090%=      5-min Rain = 0
KQU1 201152Z 19002KT 20/18 A298 RMK A01 T01950177  RH  090%=      5-min Rain = 0
KQU1 201153Z 19002KT 19/18 A298 RMK A01 T01940177  RH  090%=      5-min Rain = 0
KQU1 201154Z 19002KT 19/18 A298 RMK A01 T01940177  RH  090%=      5-min Rain = 0
KQU1 201155Z 19002KT 19/18 A298 RMK A01 T01940177  RH  090%=      5-min Rain = 0
KQU1 201156Z 18002KT 19/18 A298 RMK A01 T01940178  RH  090%=      5-min Rain = 0
KQU1 201157Z 17002KT 19/18 A298 RMK A01 T01940178  RH  090%=      5-min Rain = 0
KQU1 201158Z 17002KT 19/18 A298 RMK A01 T01940178  RH  090%=      5-min Rain = 0
KQU1 201159Z 17002KT 19/18 A298 RMK A01 T01940178  RH  090%=      5-min Rain = 0
KQU1 201200Z 17002KT 20/18 A298 RMK A01 T01950178  RH  090%=      5-min Rain = 0
KQU1 201201Z 17002KT 20/18 A298 RMK A01 T01950179  RH  090%=      5-min Rain = 0
KQU1 201202Z 17002KT 20/18 A298 RMK A01 T01950179  RH  090%=      5-min Rain = 0
KQU1 201203Z 17002KT 20/18 A298 RMK A01 T01950179  RH  090%=      5-min Rain = 0
KQU1 201204Z 17002KT 20/18 A298 RMK A01 T01960180  RH  090%=      5-min Rain = 0
KQU1 201205Z 17002KT 20/18 A298 RMK A01 T01970180  RH  090%=      5-min Rain = 0
KQU1 201206Z 17002KT 20/18 A298 RMK A01 T01980181  RH  090%=      5-min Rain = 0
KQU1 201207Z 17002KT 20/18 A298 RMK A01 T01980181  RH  090%=      5-min Rain = 0
KQU1 201208Z 17002KT 20/18 A298 RMK A01 T01990182  RH  090%=      5-min Rain = 0
KQU1 201209Z 17002KT 20/18 A298 RMK A01 T02000183  RH  090%=      5-min Rain = 0
KQU1 201210Z 17002KT 20/18 A298 RMK A01 T02010183  RH  090%=      5-min Rain = 0
KQU1 201211Z 17002KT 20/18 A298 RMK A01 T02020184  RH  090%=      5-min Rain = 0
KQU1 201212Z 16002KT 20/19 A298 RMK A01 T02030185  RH  089%=      5-min Rain = 0
KQU1 201213Z 16002KT 20/19 A298 RMK A01 T02030185  RH  089%=      5-min Rain = 0
KQU1 201214Z 17002KT 20/19 A298 RMK A01 T02040186  RH  089%=      5-min Rain = 0
KQU1 201215Z 18002KT 21/19 A298 RMK A01 T02050186  RH  089%=      5-min Rain = 0
KQU1 201216Z 19002KT 21/19 A298 RMK A01 T02060186  RH  088%=      5-min Rain = 0
KQU1 201217Z 19002KT 21/19 A298 RMK A01 T02070187  RH  088%=      5-min Rain = 0
KQU1 201218Z 18002KT 21/19 A298 RMK A01 T02070187  RH  088%=      5-min Rain = 0
KQU1 201219Z 17002KT 21/19 A298 RMK A01 T02080188  RH  088%=      5-min Rain = 0
KQU1 201220Z 16002KT 21/19 A298 RMK A01 T02090189  RH  088%=      5-min Rain = 0
KQU1 201221Z 17001KT 21/19 A298 RMK A01 T02100190  RH  088%=      5-min Rain = 0
KQU1 201222Z 17001KT 21/19 A298 RMK A01 T02110190  RH  088%=      5-min Rain = 0
KQU1 201223Z 17001KT 21/19 A298 RMK A01 T02120191  RH  088%=      5-min Rain = 0
KQU1 201224Z 17000KT 21/19 A2981 RMK A01 T02130192  RH  088%=      5-min Rain = 0
KQU1 201225Z 00000KT 21/19 A2981 RMK A01 T02140194  RH  088%=      5-min Rain = 0
KQU1 201226Z 00000KT 22/19 A2981 RMK A01 T02150194  RH  088%=      5-min Rain = 0
KQU1 201227Z 00000KT 22/19 A2981 RMK A01 T02150193  RH  087%=      5-min Rain = 0
KQU1 201228Z 00000KT 22/19 A2981 RMK A01 T02160193  RH  087%=      5-min Rain = 0
KQU1 201229Z 00000KT 22/19 A2981 RMK A01 T02170193  RH  086%=      5-min Rain = 0
KQU1 201230Z 04001KT 22/19 A2981 RMK A01 T02180193  RH  086%=      5-min Rain = 0
KQU1 201231Z 02002KT 22/19 A2981 RMK A01 T02180193  RH  086%=      5-min Rain = 0
KQU1 201232Z 36002KT 22/19 A2981 RMK A01 T02180192  RH  085%=      5-min Rain = 0
KQU1 201233Z 34003KT 22/19 A2981 RMK A01 T02170192  RH  085%=      5-min Rain = 0
KQU1 201234Z 33003KT 22/19 A2981 RMK A01 T02170193  RH  086%=      5-min Rain = 0
KQU1 201235Z 34003KT 22/19 A2981 RMK A01 T02180192  RH  085%=      5-min Rain = 0
KQU1 201236Z 35003KT 22/19 A2981 RMK A01 T02180192  RH  085%=      5-min Rain = 0
KQU1 201237Z 35001KT 22/19 A2982 RMK A01 T02190192  RH  085%=      5-min Rain = 0
KQU1 201238Z 01001KT 22/19 A2982 RMK A01 T02200193  RH  085%=      5-min Rain = 0
KQU1 201239Z 33001KT 22/19 A2982 RMK A01 T02210194  RH  084%=      5-min Rain = 0
KQU1 201240Z 00000KT 22/19 A2982 RMK A01 T02220194  RH  084%=      5-min Rain = 0
KQU1 201241Z 00000KT 22/20 A2982 RMK A01 T02240196  RH  084%=      5-min Rain = 0
KQU1 201242Z 34001KT 23/20 A2982 RMK A01 T02260196  RH  083%=      5-min Rain = 0
KQU1 201243Z 34002KT 23/19 A2982 RMK A01 T02250190  RH  081%=      5-min Rain = 0
KQU1 201244Z 34001KT 22/19 A2981 RMK A01 T02220189  RH  081%=      5-min Rain = 0
KQU1 201245Z 02001KT 22/19 A2981 RMK A01 T02210190  RH  083%=      5-min Rain = 0
KQU1 201246Z 03001KT 22/19 A2981 RMK A01 T02210190  RH  083%=      5-min Rain = 0
KQU1 201247Z 03000KT 22/19 A2981 RMK A01 T02210191  RH  083%=      5-min Rain = 0
KQU1 201248Z 00000KT 22/19 A2981 RMK A01 T02220192  RH  083%=      5-min Rain = 0
KQU1 201249Z 00000KT 22/19 A2981 RMK A01 T02220191  RH  083%=      5-min Rain = 0
KQU1 201250Z 34000KT 22/19 A2981 RMK A01 T02220190  RH  082%=      5-min Rain = 0
KQU1 201251Z 33001KT 22/19 A2981 RMK A01 T02220190  RH  082%=      5-min Rain = 0
KQU1 201252Z 33001KT 22/19 A2981 RMK A01 T02210189  RH  082%=      5-min Rain = 0
KQU1 201253Z 35002KT 22/19 A2981 RMK A01 T02210189  RH  082%=      5-min Rain = 0
KQU1 201254Z 35003KT 22/19 A2981 RMK A01 T02200188  RH  082%=      5-min Rain = 0
KQU1 201255Z 36002KT 22/19 A2981 RMK A01 T02190189  RH  083%=      5-min Rain = 0
KQU1 201256Z 35003KT 22/19 A2981 RMK A01 T02180188  RH  083%=      5-min Rain = 0
KQU1 201257Z 36002KT 22/19 A2981 RMK A01 T02180189  RH  084%=      5-min Rain = 0
KQU1 201258Z 00002KT 22/19 A2981 RMK A01 T02180191  RH  084%=      5-min Rain = 0
KQU1 201259Z 35002KT 22/19 A2981 RMK A01 T02190192  RH  085%=      5-min Rain = 0
KQU1 201300Z 00002KT 22/19 A2981 RMK A01 T02200192  RH  084%=      5-min Rain = 0
KQU1 201301Z 00002KT 22/19 A2981 RMK A01 T02200191  RH  084%=      5-min Rain = 0
KQU1 201302Z 00001KT 22/19 A2981 RMK A01 T02210192  RH  084%=      5-min Rain = 0
KQU1 201303Z 35002KT 22/19 A2982 RMK A01 T02210192  RH  084%=      5-min Rain = 0
KQU1 201304Z 35002KT 22/19 A2982 RMK A01 T02210192  RH  084%=      5-min Rain = 0
KQU1 201305Z 35003KT 22/19 A2982 RMK A01 T02210191  RH  083%=      5-min Rain = 0
KQU1 201306Z 35003KT 22/19 A2982 RMK A01 T02210191  RH  083%=      5-min Rain = 0
KQU1 201307Z 00002KT 22/19 A2982 RMK A01 T02210191  RH  083%=      5-min Rain = 0
KQU1 201308Z 01002KT 22/19 A2982 RMK A01 T02210193  RH  084%=      5-min Rain = 0
KQU1 201309Z 00001KT 22/20 A2982 RMK A01 T02230195  RH  084%=      5-min Rain = 0
KQU1 201310Z 35003KT 22/19 A2982 RMK A01 T02230192  RH  082%=      5-min Rain = 0
KQU1 201311Z 00002KT 22/19 A2982 RMK A01 T02240192  RH  082%=      5-min Rain = 0
KQU1 201312Z 03002KT 22/19 A2982 RMK A01 T02240192  RH  082%=      5-min Rain = 0
KQU1 201313Z 03001KT 23/19 A2982 RMK A01 T02260194  RH  082%=      5-min Rain = 0
KQU1 201314Z 02003KT 23/19 A2982 RMK A01 T02270192  RH  081%=      5-min Rain = 0
KQU1 201315Z 36002KT 23/19 A2982 RMK A01 T02270193  RH  081%=      5-min Rain = 0
KQU1 201316Z 35002KT 23/19 A2982 RMK A01 T02270193  RH  081%=      5-min Rain = 0
KQU1 201317Z 35003KT 23/19 A2982 RMK A01 T02260192  RH  081%=      5-min Rain = 0
KQU1 201318Z 36002KT 23/19 A2982 RMK A01 T02260191  RH  081%=      5-min Rain = 0
KQU1 201319Z 00001KT 23/19 A2982 RMK A01 T02250191  RH  081%=      5-min Rain = 0
KQU1 201320Z 02001KT 23/19 A2981 RMK A01 T02250193  RH  082%=      5-min Rain = 0
KQU1 201321Z 05001KT 23/19 A2981 RMK A01 T02260193  RH  081%=      5-min Rain = 0
KQU1 201322Z 07000KT 23/20 A2981 RMK A01 T02270195  RH  082%=      5-min Rain = 0
KQU1 201323Z 06001KT 23/20 A2981 RMK A01 T02290195  RH  081%=      5-min Rain = 0
KQU1 201324Z 09000KT 23/20 A2981 RMK A01 T02300196  RH  081%=      5-min Rain = 0
KQU1 201325Z 10001KT 23/20 A2981 RMK A01 T02320198  RH  081%=      5-min Rain = 0
KQU1 201326Z 11001KT 23/19 A2981 RMK A01 T02330194  RH  079%=      5-min Rain = 0
KQU1 201327Z 15001KT 23/20 A2981 RMK A01 T02340195  RH  079%=      5-min Rain = 0
KQU1 201328Z 17003KT 24/20 A2981 RMK A01 T02350195  RH  078%=      5-min Rain = 0
KQU1 201329Z 16002KT 24/19 A2981 RMK A01 T02350193  RH  077%=      5-min Rain = 0
KQU1 201330Z 17003KT 23/20 A2981 RMK A01 T02340195  RH  078%=      5-min Rain = 0
KQU1 201331Z 18003KT 23/19 A2981 RMK A01 T02340193  RH  078%=      5-min Rain = 0
KQU1 201332Z 18003KT 23/19 A2981 RMK A01 T02340193  RH  078%=      5-min Rain = 0
KQU1 201333Z 16002KT 23/19 A2981 RMK A01 T02340193  RH  078%=      5-min Rain = 0
KQU1 201334Z 18001KT 24/20 A2981 RMK A01 T02350195  RH  078%=      5-min Rain = 0
KQU1 201335Z 19002KT 24/19 A2981 RMK A01 T02350193  RH  077%=      5-min Rain = 0
KQU1 201336Z 15003KT 24/19 A2981 RMK A01 T02350194  RH  078%=      5-min Rain = 0
KQU1 201337Z 13003KT 24/20 A2981 RMK A01 T02360196  RH  078%=      5-min Rain = 0
KQU1 201338Z 13001KT 24/20 A2981 RMK A01 T02370196  RH  078%=      5-min Rain = 0
KQU1 201339Z 11002KT 24/20 A2981 RMK A01 T02380196  RH  077%=      5-min Rain = 0
KQU1 201340Z 12003KT 24/20 A2981 RMK A01 T02400196  RH  077%=      5-min Rain = 0
KQU1 201341Z 14003KT 24/20 A2981 RMK A01 T02400195  RH  076%=      5-min Rain = 0
KQU1 201342Z 15002KT 24/20 A2981 RMK A01 T02410196  RH  076%=      5-min Rain = 0
KQU1 201343Z 15003KT 24/20 A2981 RMK A01 T02420197  RH  076%=      5-min Rain = 0
KQU1 201344Z 15003KT 24/19 A2981 RMK A01 T02420194  RH  074%=      5-min Rain = 0
KQU1 201345Z 14003KT 24/20 A2981 RMK A01 T02420195  RH  075%=      5-min Rain = 0
KQU1 201346Z 14003KT 24/20 A2981 RMK A01 T02430196  RH  075%=      5-min Rain = 0
KQU1 201347Z 15003KT 24/20 A2981 RMK A01 T02440195  RH  074%=      5-min Rain = 0
KQU1 201348Z 14002KT 24/19 A2981 RMK A01 T02440194  RH  074%=      5-min Rain = 0
KQU1 201349Z 14001KT 25/20 A2981 RMK A01 T02450197  RH  075%=      5-min Rain = 0
KQU1 201350Z 15000KT 25/20 A2981 RMK A01 T02470198  RH  074%=      5-min Rain = 0
KQU1 201351Z 14000KT 25/20 A2981 RMK A01 T02480198  RH  074%=      5-min Rain = 0
KQU1 201352Z 14002KT 25/20 A2981 RMK A01 T02490197  RH  073%=      5-min Rain = 0
KQU1 201353Z 16003KT 25/20 A2981 RMK A01 T02500197  RH  072%=      5-min Rain = 0
KQU1 201354Z 15003KT 25/19 A2981 RMK A01 T02500193  RH  071%=      5-min Rain = 0
KQU1 201355Z 16003KT 25/19 A2981 RMK A01 T02490193  RH  071%=      5-min Rain = 0
KQU1 201356Z 15002KT 25/19 A2981 RMK A01 T02480192  RH  071%=      5-min Rain = 0
KQU1 201357Z 13002KT 25/19 A2981 RMK A01 T02480192  RH  071%=      5-min Rain = 0
KQU1 201358Z 13003KT 25/19 A2981 RMK A01 T02480193  RH  071%=      5-min Rain = 0
KQU1 201359Z 17003KT 25/19 A2981 RMK A01 T02490192  RH  071%=      5-min Rain = 0
KQU1 201400Z 16003KT 25/19 A2981 RMK A01 T02480190  RH  070%=      5-min Rain = 0
KQU1 201401Z 16002KT 25/19 A2981 RMK A01 T02480192  RH  071%=      5-min Rain = 0
KQU1 201402Z 14002KT 25/19 A2981 RMK A01 T02480192  RH  071%=      5-min Rain = 0
KQU1 201403Z 13003KT 25/19 A2981 RMK A01 T02480194  RH  072%=      5-min Rain = 0
KQU1 201404Z 13004KT 25/20 A2981 RMK A01 T02490195  RH  072%=      5-min Rain = 0
KQU1 201405Z 15003KT 25/20 A2981 RMK A01 T02500197  RH  072%=      5-min Rain = 0
KQU1 201406Z 12003KT 25/20 A2981 RMK A01 T02500197  RH  072%=      5-min Rain = 0
KQU1 201407Z 13003KT 25/20 A2981 RMK A01 T02510197  RH  072%=      5-min Rain = 0
KQU1 201408Z 14002KT 25/20 A2981 RMK A01 T02510197  RH  072%=      5-min Rain = 0
KQU1 201409Z 16004KT 25/20 A2981 RMK A01 T02510195  RH  071%=      5-min Rain = 0
KQU1 201410Z 16004KT 25/19 A2981 RMK A01 T02510191  RH  070%=      5-min Rain = 0
KQU1 201411Z 18003KT 25/19 A2981 RMK A01 T02490189  RH  069%=      5-min Rain = 0
KQU1 201412Z 18001KT 25/19 A2981 RMK A01 T02490193  RH  071%=      5-min Rain = 0
KQU1 201413Z 19002KT 25/19 A2981 RMK A01 T02490191  RH  070%=      5-min Rain = 0
KQU1 201414Z 21002KT 25/19 A2981 RMK A01 T02490190  RH  070%=      5-min Rain = 0
KQU1 201415Z 21001KT 25/19 A2981 RMK A01 T02480192  RH  071%=      5-min Rain = 0
KQU1 201416Z 15001KT 25/20 A2981 RMK A01 T02500195  RH  071%=      5-min Rain = 0
KQU1 201417Z 16001KT 25/19 A2981 RMK A01 T02520192  RH  069%=      5-min Rain = 0
KQU1 201418Z 00000KT 25/19 A2981 RMK A01 T02540194  RH  069%=      5-min Rain = 0
KQU1 201419Z 13000KT 26/20 A2981 RMK A01 T02550196  RH  070%=      5-min Rain = 0
KQU1 201420Z 17002KT 26/19 A2981 RMK A01 T02560192  RH  068%=      5-min Rain = 0
KQU1 201421Z 19003KT 26/19 A2981 RMK A01 T02560193  RH  068%=      5-min Rain = 0
KQU1 201422Z 19002KT 26/19 A2981 RMK A01 T02560192  RH  068%=      5-min Rain = 0
KQU1 201423Z 21002KT 26/19 A2981 RMK A01 T02560192  RH  068%=      5-min Rain = 0
KQU1 201424Z 23002KT 26/19 A2981 RMK A01 T02550192  RH  068%=      5-min Rain = 0
KQU1 201425Z 27002KT 26/19 A2981 RMK A01 T02550193  RH  068%=      5-min Rain = 0
KQU1 201426Z 26001KT 26/19 A2981 RMK A01 T02550190  RH  067%=      5-min Rain = 0
KQU1 201427Z 28002KT 26/19 A2981 RMK A01 T02550190  RH  068%=      5-min Rain = 0
KQU1 201428Z 34000KT 26/19 A2981 RMK A01 T02560194  RH  069%=      5-min Rain = 0
KQU1 201429Z 34000KT 26/19 A2981 RMK A01 T02560193  RH  068%=      5-min Rain = 0
KQU1 201430Z 06000KT 26/19 A2981 RMK A01 T02580194  RH  068%=      5-min Rain = 0
KQU1 201431Z 00000KT 26/20 A2981 RMK A01 T02600195  RH  068%=      5-min Rain = 0
KQU1 201432Z 01001KT 26/20 A2981 RMK A01 T02610196  RH  067%=      5-min Rain = 0
KQU1 201433Z 36002KT 26/20 A2981 RMK A01 T02610195  RH  067%=      5-min Rain = 0
KQU1 201434Z 04003KT 26/20 A2981 RMK A01 T02610199  RH  069%=      5-min Rain = 0
KQU1 201435Z 04003KT 26/20 A2981 RMK A01 T02600198  RH  068%=      5-min Rain = 0
KQU1 201436Z 04003KT 26/20 A2981 RMK A01 T02600199  RH  069%=      5-min Rain = 0
KQU1 201437Z 04002KT 26/19 A2981 RMK A01 T02600194  RH  067%=      5-min Rain = 0
KQU1 201438Z 05002KT 26/20 A2981 RMK A01 T02590195  RH  068%=      5-min Rain = 0
KQU1 201439Z 05001KT 26/20 A2981 RMK A01 T02590198  RH  069%=      5-min Rain = 0
KQU1 201440Z 05003KT 26/20 A2981 RMK A01 T02590197  RH  069%=      5-min Rain = 0
KQU1 201441Z 07003KT 26/20 A2981 RMK A01 T02600200  RH  069%=      5-min Rain = 0
KQU1 201442Z 05003KT 26/20 A2981 RMK A01 T02610199  RH  069%=      5-min Rain = 0
KQU1 201443Z 04001KT 26/20 A2981 RMK A01 T02620199  RH  068%=      5-min Rain = 0
KQU1 201444Z 07002KT 26/20 A2981 RMK A01 T02630200  RH  068%=      5-min Rain = 0
KQU1 201445Z 06002KT 26/20 A2981 RMK A01 T02630200  RH  068%=      5-min Rain = 0
KQU1 201446Z 00000KT 26/20 A2981 RMK A01 T02640201  RH  068%=      5-min Rain = 0
KQU1 201447Z 06002KT 27/20 A2981 RMK A01 T02650197  RH  066%=      5-min Rain = 0
KQU1 201448Z 08002KT 27/20 A2981 RMK A01 T02650196  RH  066%=      5-min Rain = 0
KQU1 201449Z 07002KT 27/20 A2981 RMK A01 T02650196  RH  066%=      5-min Rain = 0
KQU1 201450Z 08002KT 27/20 A2981 RMK A01 T02660197  RH  066%=      5-min Rain = 0
KQU1 201451Z 05001KT 27/20 A2981 RMK A01 T02660197  RH  066%=      5-min Rain = 0
KQU1 201452Z 11001KT 27/20 A2981 RMK A01 T02670199  RH  066%=      5-min Rain = 0
KQU1 201453Z 09001KT 27/20 A2981 RMK A01 T02680198  RH  065%=      5-min Rain = 0
KQU1 201454Z 12001KT 27/20 A2981 RMK A01 T02690199  RH  066%=      5-min Rain = 0
KQU1 201455Z 12001KT 27/20 A2981 RMK A01 T02700198  RH  065%=      5-min Rain = 0
KQU1 201456Z 09002KT 27/20 A2981 RMK A01 T02720200  RH  065%=      5-min Rain = 0
KQU1 201457Z 08003KT 27/20 A2981 RMK A01 T02730198  RH  064%=      5-min Rain = 0
KQU1 201458Z 08003KT 27/20 A2981 RMK A01 T02730203  RH  066%=      5-min Rain = 0
KQU1 201459Z 09003KT 27/20 A2981 RMK A01 T02740203  RH  065%=      5-min Rain = 0
KQU1 201500Z 08002KT 27/20 A2981 RMK A01 T02730198  RH  063%=      5-min Rain = 0
KQU1 201501Z 05002KT 27/20 A2981 RMK A01 T02730196  RH  063%=      5-min Rain = 0
KQU1 201502Z 03002KT 27/20 A2981 RMK A01 T02730197  RH  063%=      5-min Rain = 0
KQU1 201503Z 01001KT 27/20 A2981 RMK A01 T02720196  RH  063%=      5-min Rain = 0
KQU1 201504Z 34000KT 27/20 A2981 RMK A01 T02720195  RH  063%=      5-min Rain = 0
KQU1 201505Z 01001KT 27/20 A2981 RMK A01 T02720199  RH  064%=      5-min Rain = 0
KQU1 201506Z 02002KT 27/20 A2981 RMK A01 T02730200  RH  064%=      5-min Rain = 0
KQU1 201507Z 02002KT 27/20 A2981 RMK A01 T02740202  RH  065%=      5-min Rain = 0
KQU1 201508Z 08003KT 28/20 A2981 RMK A01 T02750202  RH  065%=      5-min Rain = 0
KQU1 201509Z 09003KT 28/20 A2981 RMK A01 T02750200  RH  064%=      5-min Rain = 0
KQU1 201510Z 11003KT 27/20 A2981 RMK A01 T02740196  RH  062%=      5-min Rain = 0
KQU1 201511Z 12001KT 27/20 A2981 RMK A01 T02730199  RH  064%=      5-min Rain = 0
KQU1 201512Z 07001KT 27/20 A2981 RMK A01 T02740198  RH  063%=      5-min Rain = 0
KQU1 201513Z 07001KT 27/20 A2981 RMK A01 T02740198  RH  063%=      5-min Rain = 0
KQU1 201514Z 07002KT 28/20 A2981 RMK A01 T02760202  RH  064%=      5-min Rain = 0
KQU1 201515Z 08002KT 28/21 A2981 RMK A01 T02780206  RH  065%=      5-min Rain = 0
KQU1 201516Z 08003KT 28/20 A2981 RMK A01 T02790199  RH  062%=      5-min Rain = 0
KQU1 201517Z 07003KT 28/20 A2981 RMK A01 T02780200  RH  062%=      5-min Rain = 0
KQU1 201518Z 07004KT 28/20 A2981 RMK A01 T02780202  RH  063%=      5-min Rain = 0
KQU1 201519Z 08004KT 28/20 A2981 RMK A01 T02780202  RH  063%=      5-min Rain = 0
KQU1 201520Z 10002KT 28/20 A2981 RMK A01 T02790201  RH  063%=      5-min Rain = 0
KQU1 201521Z 07003KT 28/20 A2981 RMK A01 T02800201  RH  062%=      5-min Rain = 0
KQU1 201522Z 06003KT 28/20 A2981 RMK A01 T02800200  RH  062%=      5-min Rain = 0
KQU1 201523Z 05003KT 28/20 A2981 RMK A01 T02810199  RH  061%=      5-min Rain = 0
KQU1 201524Z 07003KT 28/20 A2981 RMK A01 T02800200  RH  062%=      5-min Rain = 0
KQU1 201525Z 12002KT 28/19 A2981 RMK A01 T02800193  RH  059%=      5-min Rain = 0
KQU1 201526Z 17000KT 28/20 A2981 RMK A01 T02800195  RH  060%=      5-min Rain = 0
KQU1 201527Z 33000KT 28/20 A2981 RMK A01 T02810196  RH  060%=      5-min Rain = 0
KQU1 201528Z 34003KT 28/20 A2981 RMK A01 T02810195  RH  059%=      5-min Rain = 0
KQU1 201529Z 34003KT 28/19 A2981 RMK A01 T02800190  RH  058%=      5-min Rain = 0
KQU1 201530Z 35002KT 28/19 A2981 RMK A01 T02780192  RH  059%=      5-min Rain = 0
KQU1 201531Z 31002KT 28/19 A2981 RMK A01 T02780192  RH  060%=      5-min Rain = 0
KQU1 201532Z 32001KT 28/19 A2981 RMK A01 T02770190  RH  059%=      5-min Rain = 0
KQU1 201533Z 29004KT 28/19 A2981 RMK A01 T02780193  RH  060%=      5-min Rain = 0
KQU1 201534Z 28003KT 28/19 A2981 RMK A01 T02790190  RH  059%=      5-min Rain = 0
KQU1 201535Z 27002KT 28/19 A298 RMK A01 T02800187  RH  057%=      5-min Rain = 0
KQU1 201536Z 27003KT 28/19 A298 RMK A01 T02820185  RH  056%=      5-min Rain = 0
KQU1 201537Z 28004KT 28/19 A298 RMK A01 T02830185  RH  055%=      5-min Rain = 0
KQU1 201538Z 29002KT 28/18 A298 RMK A01 T02830182  RH  054%=      5-min Rain = 0
KQU1 201539Z 29000KT 29/18 A298 RMK A01 T02850183  RH  054%=      5-min Rain = 0
KQU1 201540Z 32001KT 29/18 A298 RMK A01 T02860182  RH  054%=      5-min Rain = 0
KQU1 201541Z 33003KT 29/19 A298 RMK A01 T02880188  RH  055%=      5-min Rain = 0
KQU1 201542Z 33003KT 29/19 A298 RMK A01 T02890188  RH  054%=      5-min Rain = 0
KQU1 201543Z 32003KT 29/19 A298 RMK A01 T02890185  RH  053%=      5-min Rain = 0
KQU1 201544Z 34002KT 29/19 A298 RMK A01 T02890187  RH  054%=      5-min Rain = 0
KQU1 201545Z 35002KT 29/19 A298 RMK A01 T02890185  RH  053%=      5-min Rain = 0
KQU1 201546Z 03001KT 29/19 A298 RMK A01 T02890192  RH  056%=      5-min Rain = 0
KQU1 201547Z 34002KT 29/20 A298 RMK A01 T02910195  RH  056%=      5-min Rain = 0
KQU1 201548Z 35002KT 29/19 A298 RMK A01 T02930193  RH  055%=      5-min Rain = 0
KQU1 201549Z 35003KT 29/19 A298 RMK A01 T02940189  RH  053%=      5-min Rain = 0
KQU1 201550Z 01002KT 29/19 A298 RMK A01 T02930187  RH  053%=      5-min Rain = 0
KQU1 201551Z 36002KT 29/19 A298 RMK A01 T02930187  RH  053%=      5-min Rain = 0
KQU1 201552Z 35001KT 29/19 A298 RMK A01 T02940188  RH  053%=      5-min Rain = 0
KQU1 201553Z 36002KT 29/18 A298 RMK A01 T02930183  RH  051%=      5-min Rain = 0
KQU1 201554Z 35001KT 29/18 A298 RMK A01 T02930183  RH  052%=      5-min Rain = 0
KQU1 201555Z 30000KT 29/18 A298 RMK A01 T02940184  RH  052%=      5-min Rain = 0
KQU1 201556Z 05001KT 30/19 A298 RMK A01 T02950185  RH  052%=      5-min Rain = 0
KQU1 201557Z 07001KT 30/19 A298 RMK A01 T02970189  RH  053%=      5-min Rain = 0
KQU1 201558Z 01002KT 30/19 A298 RMK A01 T02980189  RH  052%=      5-min Rain = 0
KQU1 201559Z 02004KT 30/19 A298 RMK A01 T02980190  RH  052%=      5-min Rain = 0
KQU1 201600Z 02003KT 30/19 A298 RMK A01 T02970190  RH  053%=      5-min Rain = 0
KQU1 201601Z 02002KT 30/19 A298 RMK A01 T02960185  RH  051%=      5-min Rain = 0
KQU1 201602Z 03002KT 30/19 A298 RMK A01 T02950189  RH  053%=      5-min Rain = 0
KQU1 201603Z 03002KT 30/19 A298 RMK A01 T02950193  RH  054%=      5-min Rain = 0
KQU1 201604Z 02002KT 30/19 A298 RMK A01 T02950191  RH  053%=      5-min Rain = 0
KQU1 201605Z 03000KT 30/19 A298 RMK A01 T02960188  RH  052%=      5-min Rain = 0
KQU1 201606Z 30000KT 30/19 A298 RMK A01 T02970189  RH  052%=      5-min Rain = 0
KQU1 201607Z 12001KT 30/19 A298 RMK A01 T02990190  RH  052%=      5-min Rain = 0
KQU1 201608Z 15001KT 30/19 A298 RMK A01 T03010191  RH  052%=      5-min Rain = 0
KQU1 201609Z 16000KT 30/19 A298 RMK A01 T03030193  RH  052%=      5-min Rain = 0
KQU1 201610Z 00000KT 30/19 A298 RMK A01 T03030194  RH  052%=      5-min Rain = 0
KQU1 201611Z 30002KT 30/19 A298 RMK A01 T03040190  RH  050%=      5-min Rain = 0
KQU1 201612Z 26002KT 31/19 A298 RMK A01 T03050188  RH  050%=      5-min Rain = 0
KQU1 201613Z 26004KT 30/18 A298 RMK A01 T03040183  RH  048%=      5-min Rain = 0
KQU1 201614Z 23004KT 30/19 A298 RMK A01 T03030185  RH  049%=      5-min Rain = 0
KQU1 201615Z 21001KT 30/18 A298 RMK A01 T03040184  RH  049%=      5-min Rain = 0
KQU1 201616Z 18002KT 31/18 A298 RMK A01 T03050183  RH  048%=      5-min Rain = 0
KQU1 201617Z 22003KT 31/19 A298 RMK A01 T03060185  RH  049%=      5-min Rain = 0
KQU1 201618Z 22005KT 31/18 A298 RMK A01 T03050184  RH  048%=      5-min Rain = 0
KQU1 201619Z 21005KT 31/19 A298 RMK A01 T03050187  RH  049%=      5-min Rain = 0
KQU1 201620Z 22004KT 31/19 A298 RMK A01 T03060190  RH  050%=      5-min Rain = 0
KQU1 201621Z 22006KT 31/18 A298 RMK A01 T03060184  RH  048%=      5-min Rain = 0
KQU1 201622Z 23004KT 31/18 A298 RMK A01 T03050183  RH  048%=      5-min Rain = 0
KQU1 201623Z 22004KT 30/18 A298 RMK A01 T03040181  RH  048%=      5-min Rain = 0
KQU1 201624Z 22004KT 30/18 A298 RMK A01 T03040181  RH  048%=      5-min Rain = 0
KQU1 201625Z 23005KT 30/18 A298 RMK A01 T03040184  RH  049%=      5-min Rain = 0
KQU1 201626Z 22002KT 30/18 A298 RMK A01 T03040180  RH  048%=      5-min Rain = 0
KQU1 201627Z 21002KT 30/18 A298 RMK A01 T03040183  RH  048%=      5-min Rain = 0
KQU1 201628Z 18004KT 31/19 A298 RMK A01 T03050185  RH  048%=      5-min Rain = 0
KQU1 201629Z 16004KT 31/18 A298 RMK A01 T03060182  RH  048%=      5-min Rain = 0
KQU1 201630Z 15004KT 31/19 A298 RMK A01 T03070186  RH  049%=      5-min Rain = 0
KQU1 201631Z 14003KT 31/18 A298 RMK A01 T03070179  RH  046%=      5-min Rain = 0
KQU1 201632Z 15003KT 31/19 A298 RMK A01 T03080185  RH  048%=      5-min Rain = 0
KQU1 201633Z 12001KT 31/18 A298 RMK A01 T03090180  RH  046%=      5-min Rain = 0
KQU1 201634Z 17004KT 31/18 A298 RMK A01 T03100184  RH  047%=      5-min Rain = 0
KQU1 201635Z 16003KT 31/19 A298 RMK A01 T03110185  RH  047%=      5-min Rain = 0
KQU1 201641Z 12002KT 31/18 A298 RMK A01 T03140179  RH  045%=      5-min Rain = 0
KQU1 201642Z 11001KT 32/18 A298 RMK A01 T03150184  RH  046%=      5-min Rain = 0
KQU1 201643Z 11001KT 32/18 A298 RMK A01 T03160182  RH  045%=      5-min Rain = 0
KQU1 201644Z 13000KT 32/19 A298 RMK A01 T03170186  RH  046%=      5-min Rain = 0
KQU1 201645Z 13003KT 32/19 A298 RMK A01 T03190191  RH  047%=      5-min Rain = 0
KQU1 201646Z 15005KT 32/19 A298 RMK A01 T03200190  RH  046%=      5-min Rain = 0
KQU1 201647Z 15003KT 32/19 A298 RMK A01 T03200187  RH  045%=      5-min Rain = 0
KQU1 201648Z 12003KT 32/19 A298 RMK A01 T03190186  RH  045%=      5-min Rain = 0
KQU1 201649Z 13000KT 32/19 A298 RMK A01 T03190187  RH  045%=      5-min Rain = 0
KQU1 201650Z 14002KT 32/19 A298 RMK A01 T03200187  RH  045%=      5-min Rain = 0
KQU1 201651Z 14004KT 32/19 A298 RMK A01 T03200186  RH  045%=      5-min Rain = 0
KQU1 201652Z 14003KT 32/19 A298 RMK A01 T03200189  RH  046%=      5-min Rain = 0
KQU1 201653Z 14002KT 32/18 A298 RMK A01 T03200183  RH  044%=      5-min Rain = 0
KQU1 201654Z 18002KT 32/19 A298 RMK A01 T03210187  RH  045%=      5-min Rain = 0
KQU1 201655Z 23001KT 32/19 A298 RMK A01 T03210188  RH  045%=      5-min Rain = 0
KQU1 201656Z 23001KT 32/19 A2979 RMK A01 T03210187  RH  045%=      5-min Rain = 0
KQU1 201657Z 21000KT 32/19 A2979 RMK A01 T03220189  RH  045%=      5-min Rain = 0
KQU1 201658Z 22002KT 32/18 A2979 RMK A01 T03220183  RH  044%=      5-min Rain = 0
KQU1 201659Z 23004KT 32/18 A2979 RMK A01 T03210184  RH  044%=      5-min Rain = 0
KQU1 201700Z 24004KT 32/18 A2979 RMK A01 T03210181  RH  043%=      5-min Rain = 0
KQU1 201701Z 26004KT 32/18 A2979 RMK A01 T03210184  RH  044%=      5-min Rain = 0
KQU1 201702Z 27004KT 32/18 A2979 RMK A01 T03210177  RH  042%=      5-min Rain = 0
KQU1 201703Z 26003KT 32/18 A2979 RMK A01 T03210181  RH  043%=      5-min Rain = 0
KQU1 201704Z 22004KT 32/18 A2979 RMK A01 T03210181  RH  043%=      5-min Rain = 0
KQU1 201705Z 23004KT 32/18 A298 RMK A01 T03200176  RH  042%=      5-min Rain = 0
KQU1 201706Z 22003KT 32/18 A298 RMK A01 T03200175  RH  042%=      5-min Rain = 0
KQU1 201707Z 20003KT 32/18 A298 RMK A01 T03200177  RH  042%=      5-min Rain = 0
KQU1 201708Z 20003KT 32/18 A298 RMK A01 T03210180  RH  043%=      5-min Rain = 0
KQU1 201709Z 20003KT 32/18 A298 RMK A01 T03220183  RH  044%=      5-min Rain = 0
KQU1 201710Z 22003KT 32/18 A298 RMK A01 T03230184  RH  044%=      5-min Rain = 0
KQU1 201711Z 18003KT 32/19 A298 RMK A01 T03230188  RH  045%=      5-min Rain = 0
KQU1 201712Z 19004KT 32/18 A298 RMK A01 T03240183  RH  043%=      5-min Rain = 0
KQU1 201713Z 16002KT 32/18 A298 RMK A01 T03230181  RH  043%=      5-min Rain = 0
KQU1 201714Z 14002KT 32/18 A298 RMK A01 T03230182  RH  043%=      5-min Rain = 0
KQU1 201715Z 18004KT 32/19 A298 RMK A01 T03240188  RH  045%=      5-min Rain = 0
KQU1 201716Z 15004KT 33/20 A298 RMK A01 T03250195  RH  046%=      5-min Rain = 0
KQU1 201717Z 14006KT 33/19 A298 RMK A01 T03260192  RH  045%=      5-min Rain = 0
KQU1 201718Z 13008KT 33/19 A298 RMK A01 T03270193  RH  045%=      5-min Rain = 0
KQU1 201719Z 12008KT 33/19 A298 RMK A01 T03270190  RH  044%=      5-min Rain = 0
KQU1 201720Z 12007KT 33/19 A298 RMK A01 T03260194  RH  046%=      5-min Rain = 0
KQU1 201721Z 15007KT 33/19 A298 RMK A01 T03260193  RH  045%=      5-min Rain = 0
KQU1 201722Z 17007KT 33/19 A298 RMK A01 T03260190  RH  045%=      5-min Rain = 0
KQU1 201723Z 16008KT 33/19 A298 RMK A01 T03260191  RH  045%=      5-min Rain = 0
KQU1 201724Z 17008KT 33/19 A298 RMK A01 T03250185  RH  043%=      5-min Rain = 0
KQU1 201725Z 16008KT 32/18 A298 RMK A01 T03240182  RH  043%=      5-min Rain = 0
KQU1 201726Z 16006KT 32/19 A298 RMK A01 T03240187  RH  044%=      5-min Rain = 0
KQU1 201727Z 16003KT 32/19 A298 RMK A01 T03240185  RH  044%=      5-min Rain = 0
KQU1 201728Z 15005KT 33/19 A298 RMK A01 T03260189  RH  044%=      5-min Rain = 0
KQU1 201729Z 17007KT 33/18 A298 RMK A01 T03260183  RH  043%=      5-min Rain = 0
KQU1 201730Z 18007KT 33/18 A298 RMK A01 T03260181  RH  042%=      5-min Rain = 0
KQU1 201731Z 18007KT 33/18 A298 RMK A01 T03260179  RH  042%=      5-min Rain = 0
KQU1 201732Z 18005KT 33/18 A298 RMK A01 T03270183  RH  042%=      5-min Rain = 0
KQU1 201733Z 19004KT 33/18 A298 RMK A01 T03280182  RH  042%=      5-min Rain = 0
KQU1 201734Z 17007KT 33/18 A298 RMK A01 T03290183  RH  042%=      5-min Rain = 0
KQU1 201735Z 16007KT 33/18 A298 RMK A01 T03290183  RH  042%=      5-min Rain = 0
KQU1 201736Z 16008KT 33/19 A298 RMK A01 T03280187  RH  043%=      5-min Rain = 0
KQU1 201737Z 17007KT 33/19 A298 RMK A01 T03290185  RH  043%=      5-min Rain = 0
KQU1 201738Z 17007KT 33/19 A298 RMK A01 T03290189  RH  044%=      5-min Rain = 0
KQU1 201739Z 16010KT 33/18 A298 RMK A01 T03300184  RH  042%=      5-min Rain = 0
KQU1 201740Z 17009KT 33/18 A298 RMK A01 T03300179  RH  041%=      5-min Rain = 0
KQU1 201741Z 18009KT 33/18 A298 RMK A01 T03300181  RH  041%=      5-min Rain = 0
KQU1 201742Z 18005KT 33/17 A298 RMK A01 T03300173  RH  039%=      5-min Rain = 0
KQU1 201743Z 18008KT 33/18 A298 RMK A01 T03300178  RH  041%=      5-min Rain = 0
KQU1 201744Z 19007KT 33/18 A298 RMK A01 T03300177  RH  040%=      5-min Rain = 0
KQU1 201745Z 20007KT 33/18 A298 RMK A01 T03300179  RH  041%=      5-min Rain = 0
KQU1 201746Z 21004KT 33/18 A298 RMK A01 T03310179  RH  040%=      5-min Rain = 0
KQU1 201747Z 16004KT 33/18 A298 RMK A01 T03320184  RH  041%=      5-min Rain = 0
KQU1 201748Z 18005KT 33/18 A298 RMK A01 T03330184  RH  041%=      5-min Rain = 0
KQU1 201749Z 19005KT 33/18 A298 RMK A01 T03330176  RH  039%=      5-min Rain = 0
KQU1 201750Z 18003KT 33/18 A298 RMK A01 T03330175  RH  039%=      5-min Rain = 0
KQU1 201751Z 19003KT 34/18 A298 RMK A01 T03350183  RH  041%=      5-min Rain = 0
KQU1 201752Z 21003KT 34/18 A298 RMK A01 T03360181  RH  040%=      5-min Rain = 0
KQU1 201753Z 20006KT 34/18 A298 RMK A01 T03370177  RH  039%=      5-min Rain = 0
KQU1 201754Z 18007KT 34/18 A298 RMK A01 T03360177  RH  039%=      5-min Rain = 0
KQU1 201755Z 18007KT 34/17 A298 RMK A01 T03360170  RH  037%=      5-min Rain = 0
KQU1 201756Z 16006KT 34/18 A2979 RMK A01 T03350177  RH  039%=      5-min Rain = 0
KQU1 201757Z 16005KT 34/17 A2979 RMK A01 T03350173  RH  038%=      5-min Rain = 0
KQU1 201758Z 14005KT 34/18 A2979 RMK A01 T03350176  RH  039%=      5-min Rain = 0
KQU1 201759Z 16006KT 34/19 A2979 RMK A01 T03360186  RH  041%=      5-min Rain = 0
KQU1 201800Z 17008KT 34/18 A2979 RMK A01 T03360182  RH  040%=      5-min Rain = 0
KQU1 201801Z 17008KT 34/18 A2979 RMK A01 T03360181  RH  040%=      5-min Rain = 0
KQU1 201802Z 18007KT 34/18 A2979 RMK A01 T03360179  RH  039%=      5-min Rain = 0
KQU1 201803Z 17006KT 34/18 A2979 RMK A01 T03360179  RH  039%=      5-min Rain = 0
KQU1 201804Z 16007KT 34/18 A2979 RMK A01 T03360175  RH  038%=      5-min Rain = 0
KQU1 201805Z 16005KT 34/18 A2979 RMK A01 T03360180  RH  040%=      5-min Rain = 0
KQU1 201806Z 18008KT 34/18 A2979 RMK A01 T03370180  RH  040%=      5-min Rain = 0
KQU1 201807Z 16006KT 34/18 A2979 RMK A01 T03360175  RH  038%=      5-min Rain = 0
KQU1 201808Z 17006KT 34/18 A2979 RMK A01 T03370180  RH  039%=      5-min Rain = 0
KQU1 201809Z 19005KT 34/18 A2979 RMK A01 T03380177  RH  038%=      5-min Rain = 0
KQU1 201810Z 16006KT 34/19 A2979 RMK A01 T03390188  RH  041%=      5-min Rain = 0
KQU1 201811Z 16007KT 34/18 A2979 RMK A01 T03400183  RH  039%=      5-min Rain = 0
KQU1 201812Z 18005KT 34/17 A2979 RMK A01 T03400170  RH  036%=      5-min Rain = 0
KQU1 201813Z 16004KT 34/18 A2979 RMK A01 T03400179  RH  039%=      5-min Rain = 0
KQU1 201814Z 17006KT 34/19 A2979 RMK A01 T03410189  RH  041%=      5-min Rain = 0
KQU1 201815Z 17006KT 34/19 A2979 RMK A01 T03430192  RH  041%=      5-min Rain = 0
KQU1 201816Z 18007KT 34/18 A2979 RMK A01 T03430181  RH  038%=      5-min Rain = 0
KQU1 201817Z 19007KT 34/17 A2979 RMK A01 T03430168  RH  035%=      5-min Rain = 0
KQU1 201818Z 19004KT 34/17 A2979 RMK A01 T03420165  RH  035%=      5-min Rain = 0
KQU1 201819Z 17006G11KT 34/18 A2979 RMK A01 T03420175  RH  037%=      5-min Rain = 0
KQU1 201820Z 17009KT 34/19 A2979 RMK A01 T03430187  RH  040%=      5-min Rain = 0
KQU1 201821Z 17007KT 34/18 A2979 RMK A01 T03440181  RH  038%=      5-min Rain = 0
KQU1 201822Z 18006KT 34/17 A2979 RMK A01 T03440171  RH  036%=      5-min Rain = 0
KQU1 201823Z 17004KT 34/17 A2979 RMK A01 T03430168  RH  035%=      5-min Rain = 0
KQU1 201824Z 17007KT 34/17 A2979 RMK A01 T03440173  RH  036%=      5-min Rain = 0
KQU1 201825Z 16008KT 35/18 A2979 RMK A01 T03450179  RH  038%=      5-min Rain = 0
KQU1 201826Z 17006KT 35/18 A2979 RMK A01 T03450179  RH  038%=      5-min Rain = 0
KQU1 201827Z 17006KT 35/18 A2979 RMK A01 T03450175  RH  036%=      5-min Rain = 0
KQU1 201828Z 18006KT 35/17 A2979 RMK A01 T03450174  RH  036%=      5-min Rain = 0
KQU1 201829Z 19006KT 35/17 A2979 RMK A01 T03450166  RH  034%=      5-min Rain = 0
KQU1 201830Z 21004KT 35/17 A2979 RMK A01 T03460170  RH  035%=      5-min Rain = 0
KQU1 201831Z 19005KT 35/17 A2979 RMK A01 T03460167  RH  034%=      5-min Rain = 0
KQU1 201832Z 16006KT 35/17 A2979 RMK A01 T03480172  RH  035%=      5-min Rain = 0
KQU1 201833Z 17008KT 35/18 A2979 RMK A01 T03480175  RH  036%=      5-min Rain = 0
KQU1 201834Z 17007KT 35/17 A2979 RMK A01 T03480169  RH  034%=      5-min Rain = 0
KQU1 201835Z 16005KT 35/16 A2979 RMK A01 T03480160  RH  033%=      5-min Rain = 0
KQU1 201836Z 18004KT 35/17 A2979 RMK A01 T03480166  RH  034%=      5-min Rain = 0
KQU1 201837Z 15003KT 35/17 A2978 RMK A01 T03480167  RH  034%=      5-min Rain = 0
KQU1 201838Z 15001KT 35/17 A2978 RMK A01 T03490166  RH  034%=      5-min Rain = 0
KQU1 201839Z 13001KT 35/17 A2978 RMK A01 T03510172  RH  035%=      5-min Rain = 0
KQU1 201840Z 17005KT 35/18 A2978 RMK A01 T03530180  RH  036%=      5-min Rain = 0
KQU1 201841Z 18007KT 35/17 A2978 RMK A01 T03530171  RH  034%=      5-min Rain = 0
KQU1 201842Z 17004KT 35/17 A2978 RMK A01 T03540173  RH  034%=      5-min Rain = 0
KQU1 201843Z 17004KT 35/16 A2978 RMK A01 T03540161  RH  032%=      5-min Rain = 0
KQU1 201844Z 18009KT 35/17 A2978 RMK A01 T03540165  RH  033%=      5-min Rain = 0
KQU1 201845Z 18010KT 35/16 A2978 RMK A01 T03540156  RH  031%=      5-min Rain = 0
KQU1 201846Z 18010KT 35/16 A2978 RMK A01 T03530161  RH  032%=      5-min Rain = 0
KQU1 201847Z 18008KT 35/16 A2978 RMK A01 T03530155  RH  031%=      5-min Rain = 0
KQU1 201848Z 17005KT 35/15 A2978 RMK A01 T03530153  RH  030%=      5-min Rain = 0
KQU1 201849Z 17009KT 35/17 A2978 RMK A01 T03540166  RH  033%=      5-min Rain = 0
KQU1 201850Z 16007KT 35/16 A2978 RMK A01 T03540160  RH  032%=      5-min Rain = 0
KQU1 201851Z 15005KT 35/16 A2978 RMK A01 T03540155  RH  031%=      5-min Rain = 0
KQU1 201852Z 17003KT 35/16 A2978 RMK A01 T03540163  RH  032%=      5-min Rain = 0
KQU1 201853Z 17005KT 36/16 A2978 RMK A01 T03550157  RH  031%=      5-min Rain = 0
KQU1 201854Z 15004KT 36/15 A2978 RMK A01 T03550152  RH  030%=      5-min Rain = 0
KQU1 201855Z 15005KT 36/17 A2978 RMK A01 T03560167  RH  033%=      5-min Rain = 0
KQU1 201856Z 14009KT 36/17 A2978 RMK A01 T03580167  RH  032%=      5-min Rain = 0
KQU1 201857Z 14010KT 36/16 A2978 RMK A01 T03580161  RH  031%=      5-min Rain = 0
KQU1 201858Z 15009KT 36/17 A2978 RMK A01 T03580165  RH  032%=      5-min Rain = 0
KQU1 201859Z 17008KT 36/16 A2978 RMK A01 T03570157  RH  031%=      5-min Rain = 0
KQU1 201900Z 16008KT 36/16 A2978 RMK A01 T03570156  RH  030%=      5-min Rain = 0
KQU1 201901Z 16008KT 36/15 A2978 RMK A01 T03570148  RH  029%=      5-min Rain = 0
KQU1 201902Z 15008KT 36/15 A2978 RMK A01 T03570152  RH  030%=      5-min Rain = 0
KQU1 201903Z 12008KT 36/15 A2978 RMK A01 T03580145  RH  028%=      5-min Rain = 0
KQU1 201904Z 13005KT 36/15 A2978 RMK A01 T03580147  RH  028%=      5-min Rain = 0
KQU1 201905Z 18008G13KT 36/15 A2978 RMK A01 T03590150  RH  029%=      5-min Rain = 0
KQU1 201906Z 21008KT 36/15 A2978 RMK A01 T03600153  RH  029%=      5-min Rain = 0
KQU1 201907Z 23009KT 36/15 A2978 RMK A01 T03610147  RH  028%=      5-min Rain = 0
KQU1 201908Z 21006KT 36/15 A2978 RMK A01 T03610150  RH  029%=      5-min Rain = 0
KQU1 201909Z 20005KT 36/15 A2978 RMK A01 T03610145  RH  028%=      5-min Rain = 0
KQU1 201910Z 19005KT 36/14 A2978 RMK A01 T03620140  RH  027%=      5-min Rain = 0
KQU1 201911Z 15004KT 36/16 A2978 RMK A01 T03630162  RH  031%=      5-min Rain = 0
KQU1 201912Z 15005KT 36/16 A2978 RMK A01 T03640160  RH  030%=      5-min Rain = 0
KQU1 201913Z 17003KT 36/15 A2977 RMK A01 T03630152  RH  029%=      5-min Rain = 0
KQU1 201914Z 20007KT 36/16 A2977 RMK A01 T03620158  RH  030%=      5-min Rain = 0
KQU1 201915Z 18008KT 36/16 A2977 RMK A01 T03640155  RH  029%=      5-min Rain = 0
KQU1 201916Z 17010KT 36/15 A2977 RMK A01 T03630153  RH  029%=      5-min Rain = 0
KQU1 201917Z 16011KT 36/16 A2977 RMK A01 T03630155  RH  029%=      5-min Rain = 0
KQU1 201918Z 16010KT 36/14 A2977 RMK A01 T03620144  RH  027%=      5-min Rain = 0
KQU1 201919Z 15009KT 36/14 A2977 RMK A01 T03610144  RH  028%=      5-min Rain = 0
KQU1 201920Z 14008KT 36/14 A2977 RMK A01 T03610140  RH  027%=      5-min Rain = 0
KQU1 201921Z 14008KT 36/15 A2977 RMK A01 T03610149  RH  028%=      5-min Rain = 0
KQU1 201922Z 16007KT 36/14 A2977 RMK A01 T03610143  RH  027%=      5-min Rain = 0
KQU1 201923Z 16007KT 36/15 A2977 RMK A01 T03610146  RH  028%=      5-min Rain = 0
KQU1 201924Z 19013KT 36/15 A2977 RMK A01 T03610146  RH  028%=      5-min Rain = 0
KQU1 201925Z 18012KT 36/14 A2977 RMK A01 T03620144  RH  027%=      5-min Rain = 0
KQU1 201926Z 18011KT 36/14 A2977 RMK A01 T03620142  RH  027%=      5-min Rain = 0
KQU1 201927Z 18008KT 36/14 A2977 RMK A01 T03620142  RH  027%=      5-min Rain = 0
KQU1 201928Z 18009KT 36/15 A2977 RMK A01 T03620149  RH  028%=      5-min Rain = 0
KQU1 201929Z 20011KT 36/13 A2977 RMK A01 T03620133  RH  026%=      5-min Rain = 0
KQU1 201930Z 20008KT 36/12 A2977 RMK A01 T03620120  RH  023%=      5-min Rain = 0
KQU1 201931Z 19005KT 36/11 A2977 RMK A01 T03630114  RH  022%=      5-min Rain = 0
KQU1 201932Z 19006KT 36/12 A2977 RMK A01 T03630123  RH  024%=      5-min Rain = 0
KQU1 201933Z 16008KT 36/15 A2977 RMK A01 T03640150  RH  028%=      5-min Rain = 0
KQU1 201934Z 16009KT 37/15 A2977 RMK A01 T03650151  RH  028%=      5-min Rain = 0
KQU1 201935Z 17009KT 37/15 A2977 RMK A01 T03660150  RH  028%=      5-min Rain = 0
KQU1 201936Z 19009KT 37/14 A2977 RMK A01 T03650141  RH  026%=      5-min Rain = 0
KQU1 201937Z 19011KT 37/14 A2977 RMK A01 T03650135  RH  025%=      5-min Rain = 0
KQU1 201938Z 19010KT 37/14 A2977 RMK A01 T03660137  RH  025%=      5-min Rain = 0
KQU1 201939Z 19008KT 37/13 A2977 RMK A01 T03660128  RH  024%=      5-min Rain = 0
KQU1 201940Z 17007KT 37/13 A2977 RMK A01 T03660131  RH  024%=      5-min Rain = 0
KQU1 201941Z 17010KT 37/14 A2977 RMK A01 T03660140  RH  026%=      5-min Rain = 0
KQU1 201942Z 18011KT 37/13 A2977 RMK A01 T03660126  RH  024%=      5-min Rain = 0
KQU1 201943Z 17010KT 37/13 A2977 RMK A01 T03660128  RH  024%=      5-min Rain = 0
KQU1 201944Z 18010KT 37/13 A2976 RMK A01 T03660131  RH  025%=      5-min Rain = 0
KQU1 201945Z 18011KT 37/11 A2976 RMK A01 T03660114  RH  022%=      5-min Rain = 0
KQU1 201946Z 18009KT 37/12 A2976 RMK A01 T03660118  RH  023%=      5-min Rain = 0
KQU1 201947Z 17007KT 37/13 A2976 RMK A01 T03670130  RH  024%=      5-min Rain = 0
KQU1 201948Z 17008KT 37/13 A2976 RMK A01 T03680128  RH  024%=      5-min Rain = 0
KQU1 201949Z 18007KT 37/13 A2976 RMK A01 T03680126  RH  024%=      5-min Rain = 0
KQU1 201950Z 16009KT 37/13 A2976 RMK A01 T03680132  RH  024%=      5-min Rain = 0
KQU1 201951Z 17012KT 37/13 A2976 RMK A01 T03680125  RH  023%=      5-min Rain = 0
KQU1 201952Z 18009KT 37/12 A2976 RMK A01 T03670118  RH  023%=      5-min Rain = 0
KQU1 201953Z 20008KT 37/12 A2976 RMK A01 T03670116  RH  022%=      5-min Rain = 0
KQU1 201954Z 21012KT 37/10 A2976 RMK A01 T03680103  RH  020%=      5-min Rain = 0
KQU1 201955Z 21011KT 37/11 A2976 RMK A01 T03690107  RH  021%=      5-min Rain = 0
KQU1 201956Z 21012KT 37/11 A2976 RMK A01 T03700106  RH  020%=      5-min Rain = 0
KQU1 201957Z 20011KT 37/10 A2976 RMK A01 T03700095  RH  019%=      5-min Rain = 0
KQU1 201958Z 19007KT 37/11 A2976 RMK A01 T03710111  RH  021%=      5-min Rain = 0
KQU1 201959Z 20011G16KT 37/10 A2976 RMK A01 T03730099  RH  019%=      5-min Rain = 0
KQU1 202000Z 19013KT 37/10 A2976 RMK A01 T03730099  RH  019%=      5-min Rain = 0
KQU1 202001Z 18014KT 37/09 A2976 RMK A01 T03720087  RH  018%=      5-min Rain = 0
KQU1 202002Z 17011G16KT 37/10 A2976 RMK A01 T03720104  RH  020%=      5-min Rain = 0
KQU1 202003Z 18015KT 37/10 A2976 RMK A01 T03710100  RH  019%=      5-min Rain = 0
KQU1 202004Z 18011KT 37/11 A2976 RMK A01 T03700108  RH  021%=      5-min Rain = 0
KQU1 202005Z 18011KT 37/11 A2976 RMK A01 T03700113  RH  021%=      5-min Rain = 0
KQU1 202006Z 18013KT 37/10 A2976 RMK A01 T03700096  RH  019%=      5-min Rain = 0
KQU1 202007Z 19011KT 37/11 A2976 RMK A01 T03710106  RH  020%=      5-min Rain = 0
KQU1 202008Z 20012KT 37/09 A2976 RMK A01 T03710085  RH  018%=      5-min Rain = 0
KQU1 202009Z 20010KT 37/08 A2976 RMK A01 T03720081  RH  017%=      5-min Rain = 0
KQU1 202010Z 20008KT 37/09 A2976 RMK A01 T03720087  RH  018%=      5-min Rain = 0
KQU1 202011Z 19011KT 37/09 A2976 RMK A01 T03730094  RH  019%=      5-min Rain = 0
KQU1 202012Z 18012KT 37/09 A2975 RMK A01 T03740089  RH  018%=      5-min Rain = 0
KQU1 202013Z 18009KT 37/09 A2975 RMK A01 T03730094  RH  018%=      5-min Rain = 0
KQU1 202014Z 17012KT 37/10 A2975 RMK A01 T03730100  RH  019%=      5-min Rain = 0
KQU1 202015Z 19012KT 37/09 A2975 RMK A01 T03730088  RH  018%=      5-min Rain = 0
KQU1 202016Z 19015KT 37/09 A2975 RMK A01 T03740089  RH  018%=      5-min Rain = 0
KQU1 202017Z 17015KT 38/09 A2975 RMK A01 T03750085  RH  017%=      5-min Rain = 0
KQU1 202018Z 17014KT 37/08 A2975 RMK A01 T03730077  RH  016%=      5-min Rain = 0
KQU1 202019Z 18013KT 37/08 A2975 RMK A01 T03720077  RH  017%=      5-min Rain = 0
KQU1 202020Z 20015KT 37/06 A2975 RMK A01 T03720062  RH  015%=      5-min Rain = 0
KQU1 202021Z 19013KT 37/07 A2975 RMK A01 T03730066  RH  015%=      5-min Rain = 0
KQU1 202022Z 18014KT 37/08 A2975 RMK A01 T03730075  RH  016%=      5-min Rain = 0
KQU1 202023Z 17012KT 37/08 A2975 RMK A01 T03730081  RH  017%=      5-min Rain = 0
KQU1 202024Z 19011KT 37/10 A2975 RMK A01 T03720095  RH  019%=      5-min Rain = 0
KQU1 202025Z 19016KT 37/08 A2975 RMK A01 T03730081  RH  017%=      5-min Rain = 0
KQU1 202026Z 19015KT 37/07 A2975 RMK A01 T03740070  RH  016%=      5-min Rain = 0
KQU1 202027Z 18013KT 37/07 A2975 RMK A01 T03740070  RH  016%=      5-min Rain = 0
KQU1 202028Z 18010KT 37/07 A2975 RMK A01 T03730069  RH  016%=      5-min Rain = 0
KQU1 202029Z 18009G14KT 37/09 A2975 RMK A01 T03740087  RH  018%=      5-min Rain = 0
KQU1 202030Z 20013KT 37/09 A2975 RMK A01 T03740088  RH  018%=      5-min Rain = 0
KQU1 202031Z 18011KT 38/10 A2975 RMK A01 T03750100  RH  019%=      5-min Rain = 0
KQU1 202032Z 18011KT 38/10 A2975 RMK A01 T03750097  RH  019%=      5-min Rain = 0
KQU1 202033Z 18011KT 37/10 A2975 RMK A01 T03740101  RH  019%=      5-min Rain = 0
KQU1 202034Z 17015KT 37/10 A2975 RMK A01 T03730096  RH  019%=      5-min Rain = 0
KQU1 202035Z 17016KT 37/08 A2975 RMK A01 T03720077  RH  017%=      5-min Rain = 0
KQU1 202036Z 17012KT 37/07 A2975 RMK A01 T03710072  RH  016%=      5-min Rain = 0
KQU1 202037Z 17011KT 37/09 A2975 RMK A01 T03710087  RH  018%=      5-min Rain = 0
KQU1 202038Z 16010KT 37/11 A2975 RMK A01 T03720105  RH  020%=      5-min Rain = 0
KQU1 202039Z 16009KT 37/09 A2975 RMK A01 T03720088  RH  018%=      5-min Rain = 0
KQU1 202040Z 18010KT 37/10 A2975 RMK A01 T03720103  RH  020%=      5-min Rain = 0
KQU1 202041Z 17010KT 37/10 A2975 RMK A01 T03730098  RH  019%=      5-min Rain = 0
KQU1 202042Z 17014KT 37/10 A2974 RMK A01 T03730095  RH  019%=      5-min Rain = 0
KQU1 202043Z 17015KT 37/09 A2974 RMK A01 T03720087  RH  018%=      5-min Rain = 0
KQU1 202044Z 18016KT 37/09 A2974 RMK A01 T03720086  RH  018%=      5-min Rain = 0
KQU1 202045Z 18011KT 37/10 A2974 RMK A01 T03720102  RH  020%=      5-min Rain = 0
KQU1 202046Z 18013KT 37/10 A2974 RMK A01 T03730098  RH  019%=      5-min Rain = 0
KQU1 202047Z 17014KT 37/09 A2974 RMK A01 T03740094  RH  018%=      5-min Rain = 0
KQU1 202048Z 19013KT 37/08 A2974 RMK A01 T03730079  RH  017%=      5-min Rain = 0
KQU1 202049Z 18013KT 37/08 A2974 RMK A01 T03740082  RH  017%=      5-min Rain = 0
KQU1 202050Z 16013KT 38/10 A2974 RMK A01 T03750101  RH  019%=      5-min Rain = 0
KQU1 202051Z 17015KT 37/09 A2974 RMK A01 T03740090  RH  018%=      5-min Rain = 0
KQU1 202052Z 17017KT 37/09 A2974 RMK A01 T03730087  RH  018%=      5-min Rain = 0
KQU1 202053Z 17017KT 37/09 A2974 RMK A01 T03720085  RH  017%=      5-min Rain = 0
KQU1 202054Z 18015KT 37/07 A2974 RMK A01 T03710072  RH  016%=      5-min Rain = 0
KQU1 202055Z 19014KT 37/07 A2974 RMK A01 T03710071  RH  016%=      5-min Rain = 0
KQU1 202056Z 20013KT 37/08 A2974 RMK A01 T03730076  RH  016%=      5-min Rain = 0
KQU1 202057Z 19012KT 38/08 A2974 RMK A01 T03750081  RH  017%=      5-min Rain = 0
KQU1 202058Z 19012KT 38/09 A2974 RMK A01 T03760092  RH  018%=      5-min Rain = 0
KQU1 202059Z 19014KT 38/07 A2974 RMK A01 T03760068  RH  015%=      5-min Rain = 0
KQU1 202100Z 20012G17KT 38/07 A2974 RMK A01 T03770073  RH  016%=      5-min Rain = 0
KQU1 202101Z 20013KT 38/07 A2974 RMK A01 T03770069  RH  015%=      5-min Rain = 0
KQU1 202102Z 19014KT 38/06 A2974 RMK A01 T03770059  RH  014%=      5-min Rain = 0
KQU1 202103Z 19013KT 38/06 A2974 RMK A01 T03770056  RH  014%=      5-min Rain = 0
KQU1 202104Z 19011KT 38/07 A2974 RMK A01 T03770069  RH  015%=      5-min Rain = 0
KQU1 202105Z 18011KT 38/07 A2974 RMK A01 T03770070  RH  015%=      5-min Rain = 0
KQU1 202106Z 19010KT 38/07 A2974 RMK A01 T03770066  RH  015%=      5-min Rain = 0
KQU1 202107Z 19016G23KT 38/08 A2974 RMK A01 T03770078  RH  016%=      5-min Rain = 0
KQU1 202108Z 17013KT 38/07 A2974 RMK A01 T03760074  RH  016%=      5-min Rain = 0
KQU1 202109Z 16014KT 38/08 A2973 RMK A01 T03750082  RH  017%=      5-min Rain = 0
KQU1 202110Z 17013KT 37/08 A2974 RMK A01 T03740084  RH  017%=      5-min Rain = 0
KQU1 202111Z 18012KT 37/09 A2973 RMK A01 T03740090  RH  018%=      5-min Rain = 0
KQU1 202112Z 18013KT 37/10 A2973 RMK A01 T03740097  RH  019%=      5-min Rain = 0
KQU1 202113Z 20012KT 38/10 A2973 RMK A01 T03750098  RH  019%=      5-min Rain = 0
KQU1 202114Z 20012KT 38/09 A2973 RMK A01 T03770087  RH  017%=      5-min Rain = 0
KQU1 202115Z 20014KT 38/08 A2973 RMK A01 T03770077  RH  016%=      5-min Rain = 0
KQU1 202116Z 21014KT 38/08 A2973 RMK A01 T03780075  RH  016%=      5-min Rain = 0
KQU1 202117Z 20011KT 38/07 A2973 RMK A01 T03780074  RH  016%=      5-min Rain = 0
KQU1 202118Z 19010KT 38/08 A2973 RMK A01 T03780084  RH  017%=      5-min Rain = 0
KQU1 202119Z 19011KT 38/07 A2973 RMK A01 T03780065  RH  015%=      5-min Rain = 0
KQU1 202120Z 19011KT 38/07 A2973 RMK A01 T03780070  RH  015%=      5-min Rain = 0
KQU1 202121Z 19010KT 38/06 A2973 RMK A01 T03780063  RH  015%=      5-min Rain = 0
KQU1 202122Z 18012KT 38/08 A2973 RMK A01 T03790075  RH  016%=      5-min Rain = 0
KQU1 202123Z 18014KT 38/08 A2973 RMK A01 T03790077  RH  016%=      5-min Rain = 0
KQU1 202124Z 18013KT 38/08 A2973 RMK A01 T03780084  RH  017%=      5-min Rain = 0
KQU1 202125Z 17015KT 38/08 A2973 RMK A01 T03760080  RH  016%=      5-min Rain = 0
KQU1 202126Z 18016KT 38/07 A2973 RMK A01 T03750072  RH  016%=      5-min Rain = 0
KQU1 202127Z 18014KT 38/09 A2973 RMK A01 T03750086  RH  017%=      5-min Rain = 0
KQU1 202128Z 18013KT 37/08 A2973 RMK A01 T03740075  RH  016%=      5-min Rain = 0
KQU1 202129Z 17012KT 38/09 A2973 RMK A01 T03750087  RH  018%=      5-min Rain = 0
KQU1 202130Z 18012KT 38/09 A2973 RMK A01 T03750094  RH  018%=      5-min Rain = 0
KQU1 202131Z 17011KT 38/09 A2973 RMK A01 T03760088  RH  017%=      5-min Rain = 0
KQU1 202132Z 17012KT 38/09 A2972 RMK A01 T03760093  RH  018%=      5-min Rain = 0
KQU1 202133Z 17011KT 38/10 A2972 RMK A01 T03760095  RH  018%=      5-min Rain = 0
KQU1 202134Z 18015KT 38/08 A2972 RMK A01 T03760083  RH  017%=      5-min Rain = 0
KQU1 202135Z 19013KT 38/07 A2972 RMK A01 T03760072  RH  016%=      5-min Rain = 0
KQU1 202136Z 20014KT 38/07 A2972 RMK A01 T03770070  RH  015%=      5-min Rain = 0
KQU1 202137Z 19015KT 38/08 A2972 RMK A01 T03780076  RH  016%=      5-min Rain = 0
KQU1 202138Z 20015KT 38/07 A2972 RMK A01 T03780070  RH  015%=      5-min Rain = 0
KQU1 202139Z 21010KT 38/08 A2972 RMK A01 T03790079  RH  016%=      5-min Rain = 0
KQU1 202140Z 20010KT 38/08 A2972 RMK A01 T03790075  RH  016%=      5-min Rain = 0
KQU1 202141Z 20013KT 38/07 A2972 RMK A01 T03790068  RH  015%=      5-min Rain = 0
KQU1 202142Z 20014KT 38/07 A2972 RMK A01 T03790069  RH  015%=      5-min Rain = 0
KQU1 202143Z 19013KT 38/07 A2972 RMK A01 T03790067  RH  015%=      5-min Rain = 0
KQU1 202144Z 20012KT 38/07 A2972 RMK A01 T03780070  RH  015%=      5-min Rain = 0
KQU1 202145Z 20011KT 38/07 A2972 RMK A01 T03790070  RH  015%=      5-min Rain = 0
KQU1 202146Z 20012KT 38/07 A2972 RMK A01 T03790071  RH  015%=      5-min Rain = 0
KQU1 202147Z 20011KT 38/06 A2972 RMK A01 T03790055  RH  014%=      5-min Rain = 0
KQU1 202148Z 19009KT 38/08 A2972 RMK A01 T03790075  RH  016%=      5-min Rain = 0
KQU1 202149Z 19007KT 38/06 A2972 RMK A01 T03800063  RH  014%=      5-min Rain = 0
KQU1 202150Z 19009KT 38/07 A2972 RMK A01 T03800066  RH  015%=      5-min Rain = 0
KQU1 202151Z 20008KT 38/07 A2972 RMK A01 T03800072  RH  015%=      5-min Rain = 0
KQU1 202152Z 20007KT 38/08 A2972 RMK A01 T03800080  RH  016%=      5-min Rain = 0
KQU1 202153Z 22007KT 38/08 A2972 RMK A01 T03800082  RH  016%=      5-min Rain = 0
KQU1 202154Z 23005KT 38/06 A2972 RMK A01 T03800060  RH  014%=      5-min Rain = 0
KQU1 202155Z 20004KT 38/09 A2972 RMK A01 T03810085  RH  017%=      5-min Rain = 0
KQU1 202156Z 23005G10KT 38/08 A2972 RMK A01 T03820084  RH  017%=      5-min Rain = 0
KQU1 202157Z 23008KT 38/09 A2972 RMK A01 T03820093  RH  018%=      5-min Rain = 0
KQU1 202158Z 21011KT 38/07 A2972 RMK A01 T03820073  RH  016%=      5-min Rain = 0
KQU1 202159Z 20008KT 38/07 A2972 RMK A01 T03810067  RH  015%=      5-min Rain = 0
KQU1 202200Z 20011G16KT 38/07 A2972 RMK A01 T03820072  RH  015%=      5-min Rain = 0
KQU1 202201Z 21016KT 38/06 A2972 RMK A01 T03810056  RH  014%=      5-min Rain = 0
KQU1 202202Z 22013KT 38/05 A2972 RMK A01 T03800051  RH  013%=      5-min Rain = 0
KQU1 202203Z 23011KT 38/06 A2972 RMK A01 T03790063  RH  014%=      5-min Rain = 0
KQU1 202204Z 22011KT 38/05 A2972 RMK A01 T03790054  RH  014%=      5-min Rain = 0
KQU1 202205Z 22012KT 38/07 A2972 RMK A01 T03790065  RH  015%=      5-min Rain = 0
KQU1 202206Z 22013KT 38/06 A2972 RMK A01 T03780056  RH  014%=      5-min Rain = 0
KQU1 202207Z 22014KT 38/06 A2972 RMK A01 T03780055  RH  014%=      5-min Rain = 0
KQU1 202208Z 21013KT 38/06 A2972 RMK A01 T03780058  RH  014%=      5-min Rain = 0
KQU1 202209Z 21011KT 38/06 A2972 RMK A01 T03780063  RH  015%=      5-min Rain = 0
KQU1 202210Z 22014KT 38/06 A2972 RMK A01 T03780058  RH  014%=      5-min Rain = 0
KQU1 202211Z 21014KT 38/06 A2972 RMK A01 T03770057  RH  014%=      5-min Rain = 0
KQU1 202212Z 20013KT 38/05 A2972 RMK A01 T03770051  RH  013%=      5-min Rain = 0
KQU1 202213Z 20012KT 38/05 A2972 RMK A01 T03780053  RH  014%=      5-min Rain = 0
KQU1 202214Z 20010KT 38/07 A2972 RMK A01 T03780067  RH  015%=      5-min Rain = 0
KQU1 202215Z 22009KT 38/08 A2972 RMK A01 T03780075  RH  016%=      5-min Rain = 0
KQU1 202216Z 22011KT 38/06 A2972 RMK A01 T03780056  RH  014%=      5-min Rain = 0
KQU1 202217Z 21009KT 38/06 A2972 RMK A01 T03780057  RH  014%=      5-min Rain = 0
KQU1 202218Z 20008KT 38/08 A2972 RMK A01 T03790078  RH  016%=      5-min Rain = 0
KQU1 202219Z 20010KT 38/07 A2972 RMK A01 T03800066  RH  015%=      5-min Rain = 0
KQU1 202220Z 21010KT 38/06 A2972 RMK A01 T03800056  RH  014%=      5-min Rain = 0
KQU1 202221Z 20011KT 38/07 A2972 RMK A01 T03800071  RH  015%=      5-min Rain = 0
KQU1 202222Z 22013KT 38/06 A2972 RMK A01 T03790061  RH  014%=      5-min Rain = 0
KQU1 202223Z 21017KT 38/06 A2971 RMK A01 T03780062  RH  014%=      5-min Rain = 0
KQU1 202224Z 20015KT 38/08 A2972 RMK A01 T03780080  RH  016%=      5-min Rain = 0
KQU1 202225Z 18014KT 38/09 A2972 RMK A01 T03770087  RH  017%=      5-min Rain = 0
KQU1 202226Z 18013KT 38/09 A2972 RMK A01 T03760090  RH  018%=      5-min Rain = 0
KQU1 202227Z 19011KT 38/11 A2972 RMK A01 T03760106  RH  020%=      5-min Rain = 0
KQU1 202228Z 18010KT 38/09 A2972 RMK A01 T03760094  RH  018%=      5-min Rain = 0
KQU1 202229Z 16007KT 38/10 A2972 RMK A01 T03760104  RH  019%=      5-min Rain = 0
KQU1 202230Z 16015KT 38/10 A2972 RMK A01 T03760102  RH  019%=      5-min Rain = 0
KQU1 202231Z 19013KT 37/10 A2971 RMK A01 T03740099  RH  019%=      5-min Rain = 0
KQU1 202232Z 18015KT 37/09 A2971 RMK A01 T03740092  RH  018%=      5-min Rain = 0
KQU1 202233Z 17015KT 37/09 A2971 RMK A01 T03730085  RH  017%=      5-min Rain = 0
KQU1 202234Z 18013KT 37/08 A2971 RMK A01 T03710083  RH  017%=      5-min Rain = 0
KQU1 202235Z 18011KT 37/09 A2971 RMK A01 T03710091  RH  018%=      5-min Rain = 0
KQU1 202236Z 18009KT 37/09 A2971 RMK A01 T03720088  RH  018%=      5-min Rain = 0
KQU1 202237Z 18008KT 37/11 A2971 RMK A01 T03720107  RH  020%=      5-min Rain = 0
KQU1 202238Z 17011KT 37/10 A2971 RMK A01 T03730099  RH  019%=      5-min Rain = 0
KQU1 202239Z 17010KT 37/09 A2971 RMK A01 T03720090  RH  018%=      5-min Rain = 0
KQU1 202240Z 18007KT 37/09 A2971 RMK A01 T03720091  RH  018%=      5-min Rain = 0
KQU1 202241Z 20006KT 37/09 A2971 RMK A01 T03730094  RH  018%=      5-min Rain = 0
KQU1 202242Z 20009KT 37/07 A2971 RMK A01 T03740074  RH  016%=      5-min Rain = 0
KQU1 202243Z 19010KT 38/05 A2971 RMK A01 T03760046  RH  013%=      5-min Rain = 0
KQU1 202244Z 19010KT 38/06 A2971 RMK A01 T03760056  RH  014%=      5-min Rain = 0
KQU1 202245Z 20008KT 38/05 A2971 RMK A01 T03760049  RH  013%=      5-min Rain = 0
KQU1 202246Z 21009KT 38/05 A2971 RMK A01 T03760047  RH  013%=      5-min Rain = 0
KQU1 202247Z 20009KT 38/06 A2971 RMK A01 T03750058  RH  014%=      5-min Rain = 0
KQU1 202248Z 21010KT 37/06 A2971 RMK A01 T03740060  RH  015%=      5-min Rain = 0
KQU1 202249Z 21010KT 37/07 A2971 RMK A01 T03730070  RH  016%=      5-min Rain = 0
KQU1 202250Z 21011KT 37/06 A2971 RMK A01 T03730057  RH  014%=      5-min Rain = 0
KQU1 202251Z 20011KT 37/06 A2971 RMK A01 T03730056  RH  014%=      5-min Rain = 0
KQU1 202252Z 19010KT 37/06 A2971 RMK A01 T03730063  RH  015%=      5-min Rain = 0
KQU1 202253Z 20009KT 37/07 A2971 RMK A01 T03720074  RH  016%=      5-min Rain = 0
KQU1 202254Z 20011KT 37/08 A2971 RMK A01 T03710082  RH  017%=      5-min Rain = 0
KQU1 202255Z 21012KT 37/07 A2971 RMK A01 T03690066  RH  016%=      5-min Rain = 0
KQU1 202256Z 21012KT 37/05 A2971 RMK A01 T03670047  RH  014%=      5-min Rain = 0
KQU1 202257Z 20010KT 37/06 A2971 RMK A01 T03660056  RH  015%=      5-min Rain = 0
KQU1 202258Z 20011KT 37/07 A2971 RMK A01 T03670065  RH  016%=      5-min Rain = 0
KQU1 202259Z 20010KT 37/07 A2971 RMK A01 T03680065  RH  016%=      5-min Rain = 0
KQU1 202300Z 20011KT 37/06 A2971 RMK A01 T03700062  RH  015%=      5-min Rain = 0
KQU1 202301Z 21010KT 37/07 A2971 RMK A01 T03720066  RH  015%=      5-min Rain = 0
KQU1 202302Z 21012KT 37/07 A2971 RMK A01 T03710066  RH  015%=      5-min Rain = 0
KQU1 202303Z 21011KT 37/06 A2971 RMK A01 T03690062  RH  015%=      5-min Rain = 0
KQU1 202304Z 21012KT 37/07 A2971 RMK A01 T03670067  RH  016%=      5-min Rain = 0
KQU1 202305Z 21011KT 36/06 A2971 RMK A01 T03640063  RH  016%=      5-min Rain = 0
KQU1 202306Z 21011KT 36/06 A2971 RMK A01 T03620056  RH  015%=      5-min Rain = 0
KQU1 202307Z 20010KT 36/06 A2971 RMK A01 T03620061  RH  016%=      5-min Rain = 0
KQU1 202308Z 21010KT 36/07 A2971 RMK A01 T03610068  RH  017%=      5-min Rain = 0
KQU1 202309Z 20008KT 36/08 A2971 RMK A01 T03590076  RH  018%=      5-min Rain = 0
KQU1 202310Z 20009KT 36/08 A2971 RMK A01 T03590081  RH  018%=      5-min Rain = 0
KQU1 202311Z 20009KT 36/09 A2971 RMK A01 T03600092  RH  020%=      5-min Rain = 0
KQU1 202312Z 20008KT 36/08 A2971 RMK A01 T03610084  RH  018%=      5-min Rain = 0
KQU1 202313Z 21009KT 36/09 A2971 RMK A01 T03630087  RH  019%=      5-min Rain = 0
KQU1 202314Z 21009KT 37/09 A2971 RMK A01 T03650089  RH  019%=      5-min Rain = 0
KQU1 202315Z 21010KT 37/09 A2971 RMK A01 T03660087  RH  018%=      5-min Rain = 0
KQU1 202316Z 21009KT 37/08 A2971 RMK A01 T03660082  RH  018%=      5-min Rain = 0
KQU1 202317Z 21009KT 36/09 A2971 RMK A01 T03640086  RH  018%=      5-min Rain = 0
KQU1 202318Z 20009KT 36/08 A2971 RMK A01 T03630083  RH  018%=      5-min Rain = 0
KQU1 202319Z 20009KT 36/09 A2971 RMK A01 T03640089  RH  019%=      5-min Rain = 0
KQU1 202320Z 19008G14KT 37/10 A2971 RMK A01 T03650100  RH  020%=      5-min Rain = 0
KQU1 202321Z 20010G18KT 37/09 A2971 RMK A01 T03660094  RH  019%=      5-min Rain = 0
KQU1 202322Z 20009KT 37/11 A2971 RMK A01 T03650108  RH  021%=      5-min Rain = 0
KQU1 202323Z 20011KT 36/08 A2971 RMK A01 T03640080  RH  018%=      5-min Rain = 0
KQU1 202324Z 20013KT 36/07 A2971 RMK A01 T03620066  RH  016%=      5-min Rain = 0
KQU1 202325Z 20011KT 36/07 A2971 RMK A01 T03610065  RH  016%=      5-min Rain = 0
KQU1 202326Z 21010KT 36/08 A2971 RMK A01 T03600075  RH  017%=      5-min Rain = 0
KQU1 202327Z 21009KT 36/08 A2971 RMK A01 T03600075  RH  017%=      5-min Rain = 0
KQU1 202328Z 20009KT 36/08 A2971 RMK A01 T03600077  RH  018%=      5-min Rain = 0
KQU1 202329Z 19008KT 36/09 A2971 RMK A01 T03600088  RH  019%=      5-min Rain = 0
KQU1 202330Z 20009KT 36/09 A297 RMK A01 T03600092  RH  020%=      5-min Rain = 0
KQU1 202331Z 20009KT 36/10 A297 RMK A01 T03590095  RH  020%=      5-min Rain = 0
KQU1 202332Z 19009KT 36/08 A297 RMK A01 T03580084  RH  019%=      5-min Rain = 0
KQU1 202333Z 20009KT 36/09 A297 RMK A01 T03580093  RH  020%=      5-min Rain = 0
KQU1 202334Z 19008KT 36/10 A297 RMK A01 T03580097  RH  020%=      5-min Rain = 0
KQU1 202335Z 19006KT 36/11 A297 RMK A01 T03600105  RH  021%=      5-min Rain = 0
KQU1 202336Z 18006KT 36/11 A297 RMK A01 T03610112  RH  022%=      5-min Rain = 0
KQU1 202337Z 18008KT 36/10 A297 RMK A01 T03620097  RH  020%=      5-min Rain = 0
KQU1 202338Z 19008KT 36/10 A297 RMK A01 T03630102  RH  021%=      5-min Rain = 0
KQU1 202339Z 18010KT 36/08 A297 RMK A01 T03640084  RH  018%=      5-min Rain = 0
KQU1 202340Z 18008KT 37/09 A297 RMK A01 T03650090  RH  019%=      5-min Rain = 0
KQU1 202341Z 18010KT 37/09 A297 RMK A01 T03650091  RH  019%=      5-min Rain = 0
KQU1 202342Z 18009KT 36/09 A297 RMK A01 T03640091  RH  019%=      5-min Rain = 0
KQU1 202343Z 18009KT 36/09 A297 RMK A01 T03630088  RH  019%=      5-min Rain = 0
KQU1 202344Z 17009KT 36/10 A297 RMK A01 T03630099  RH  020%=      5-min Rain = 0
KQU1 202345Z 18009KT 36/10 A297 RMK A01 T03630103  RH  021%=      5-min Rain = 0
KQU1 202346Z 18008KT 36/10 A297 RMK A01 T03620100  RH  020%=      5-min Rain = 0
KQU1 202347Z 19008KT 36/10 A297 RMK A01 T03620104  RH  021%=      5-min Rain = 0
KQU1 202348Z 18008KT 36/11 A297 RMK A01 T03620105  RH  021%=      5-min Rain = 0
KQU1 202349Z 18007KT 36/10 A297 RMK A01 T03620104  RH  021%=      5-min Rain = 0
KQU1 202350Z 19009KT 36/10 A297 RMK A01 T03630098  RH  020%=      5-min Rain = 0
KQU1 202351Z 19008KT 36/09 A297 RMK A01 T03630092  RH  019%=      5-min Rain = 0
KQU1 202352Z 19009KT 36/09 A297 RMK A01 T03640085  RH  018%=      5-min Rain = 0
KQU1 202353Z 19010KT 37/08 A297 RMK A01 T03650075  RH  017%=      5-min Rain = 0
KQU1 202354Z 19009KT 37/08 A297 RMK A01 T03660075  RH  017%=      5-min Rain = 0
KQU1 202355Z 19010KT 37/07 A297 RMK A01 T03660068  RH  016%=      5-min Rain = 0
KQU1 202356Z 19009KT 37/07 A297 RMK A01 T03670073  RH  017%=      5-min Rain = 0
KQU1 202357Z 19009KT 37/08 A297 RMK A01 T03670077  RH  017%=      5-min Rain = 0
KQU1 202358Z 19009KT 37/08 A297 RMK A01 T03660083  RH  018%=      5-min Rain = 0
KQU1 202359Z 19010KT 37/07 A297 RMK A01 T03660068  RH  016%=      5-min Rain = 0
KQU1 210000Z 19009KT 37/08 A297 RMK A01 T03660077  RH  017%=      5-min Rain = 0
KQU1 210001Z 19009KT 37/07 A297 RMK A01 T03660072  RH  017%=      5-min Rain = 0
KQU1 210002Z 19008KT 37/07 A297 RMK A01 T03660074  RH  017%=      5-min Rain = 0
KQU1 210003Z 19008KT 37/08 A297 RMK A01 T03660083  RH  018%=      5-min Rain = 0
KQU1 210004Z 19009KT 37/09 A297 RMK A01 T03660086  RH  018%=      5-min Rain = 0
KQU1 210005Z 19007KT 37/09 A2969 RMK A01 T03650087  RH  018%=      5-min Rain = 0
KQU1 210006Z 19007KT 36/10 A297 RMK A01 T03640099  RH  020%=      5-min Rain = 0
KQU1 210007Z 18007KT 36/10 A297 RMK A01 T03630103  RH  021%=      5-min Rain = 0
KQU1 210008Z 18008KT 36/09 A297 RMK A01 T03620092  RH  019%=      5-min Rain = 0
KQU1 210009Z 19007KT 36/10 A2969 RMK A01 T03620096  RH  020%=      5-min Rain = 0
KQU1 210010Z 19007KT 36/10 A2969 RMK A01 T03620103  RH  021%=      5-min Rain = 0
KQU1 210011Z 18007KT 36/11 A2969 RMK A01 T03610106  RH  021%=      5-min Rain = 0
KQU1 210012Z 18008KT 36/10 A2969 RMK A01 T03600101  RH  021%=      5-min Rain = 0
KQU1 210013Z 18008KT 36/10 A2969 RMK A01 T03590100  RH  021%=      5-min Rain = 0
KQU1 210014Z 18009KT 36/09 A2969 RMK A01 T03580090  RH  019%=      5-min Rain = 0
KQU1 210015Z 18008KT 36/09 A2969 RMK A01 T03580093  RH  020%=      5-min Rain = 0
KQU1 210016Z 18007KT 36/10 A2969 RMK A01 T03570096  RH  020%=      5-min Rain = 0
KQU1 210017Z 18008KT 36/10 A2969 RMK A01 T03560097  RH  021%=      5-min Rain = 0
KQU1 210018Z 18008KT 36/09 A2969 RMK A01 T03560091  RH  020%=      5-min Rain = 0
KQU1 210019Z 18008KT 36/10 A2969 RMK A01 T03560099  RH  021%=      5-min Rain = 0
KQU1 210020Z 18008KT 36/10 A2969 RMK A01 T03550098  RH  021%=      5-min Rain = 0
KQU1 210021Z 19008KT 35/10 A2969 RMK A01 T03540095  RH  021%=      5-min Rain = 0
KQU1 210022Z 19008KT 35/11 A2969 RMK A01 T03540105  RH  022%=      5-min Rain = 0
KQU1 210023Z 18008KT 35/11 A2969 RMK A01 T03540105  RH  022%=      5-min Rain = 0
KQU1 210024Z 18007KT 35/11 A2969 RMK A01 T03530107  RH  022%=      5-min Rain = 0
KQU1 210025Z 18008KT 35/11 A2969 RMK A01 T03520106  RH  022%=      5-min Rain = 0
KQU1 210026Z 19008KT 35/10 A2969 RMK A01 T03520104  RH  022%=      5-min Rain = 0
KQU1 210027Z 19007KT 35/11 A2969 RMK A01 T03520108  RH  023%=      5-min Rain = 0
KQU1 210028Z 19006KT 35/11 A2969 RMK A01 T03520111  RH  023%=      5-min Rain = 0
KQU1 210029Z 19006KT 35/12 A2969 RMK A01 T03510120  RH  025%=      5-min Rain = 0
KQU1 210030Z 19005KT 35/13 A2969 RMK A01 T03510127  RH  026%=      5-min Rain = 0
KQU1 210031Z 20006KT 35/12 A2969 RMK A01 T03500124  RH  026%=      5-min Rain = 0
KQU1 210032Z 20006KT 35/13 A2969 RMK A01 T03490132  RH  027%=      5-min Rain = 0
KQU1 210033Z 19006KT 35/13 A2969 RMK A01 T03480134  RH  028%=      5-min Rain = 0
KQU1 210034Z 20006KT 35/14 A2969 RMK A01 T03460137  RH  028%=      5-min Rain = 0
KQU1 210035Z 19006KT 35/13 A2969 RMK A01 T03450134  RH  028%=      5-min Rain = 0
KQU1 210036Z 18006KT 35/13 A2969 RMK A01 T03450132  RH  028%=      5-min Rain = 0
KQU1 210037Z 18006KT 35/14 A2969 RMK A01 T03450135  RH  028%=      5-min Rain = 0
KQU1 210038Z 18006KT 34/14 A2969 RMK A01 T03440138  RH  029%=      5-min Rain = 0
KQU1 210039Z 18006KT 34/14 A2969 RMK A01 T03430143  RH  030%=      5-min Rain = 0
KQU1 210040Z 18006KT 34/14 A2969 RMK A01 T03420141  RH  030%=      5-min Rain = 0
KQU1 210041Z 18006KT 34/14 A2969 RMK A01 T03420138  RH  029%=      5-min Rain = 0
KQU1 210042Z 17006KT 34/14 A2969 RMK A01 T03410135  RH  029%=      5-min Rain = 0
KQU1 210043Z 17006KT 34/14 A2969 RMK A01 T03400135  RH  029%=      5-min Rain = 0
KQU1 210044Z 17006KT 34/13 A2969 RMK A01 T03390134  RH  029%=      5-min Rain = 0
KQU1 210045Z 17005KT 34/14 A2969 RMK A01 T03380139  RH  030%=      5-min Rain = 0
KQU1 210046Z 17006KT 34/14 A2969 RMK A01 T03370136  RH  030%=      5-min Rain = 0
KQU1 210047Z 17006KT 34/14 A2969 RMK A01 T03360136  RH  030%=      5-min Rain = 0
KQU1 210048Z 17006KT 34/14 A2969 RMK A01 T03350138  RH  030%=      5-min Rain = 0
KQU1 210049Z 17006KT 33/14 A2969 RMK A01 T03340139  RH  031%=      5-min Rain = 0
KQU1 210050Z 16006KT 33/14 A2969 RMK A01 T03330136  RH  030%=      5-min Rain = 0
KQU1 210051Z 16006KT 33/14 A2969 RMK A01 T03320135  RH  030%=      5-min Rain = 0
KQU1 210052Z 16006KT 33/14 A2969 RMK A01 T03320136  RH  031%=      5-min Rain = 0
KQU1 210053Z 16005KT 33/14 A2969 RMK A01 T03310136  RH  031%=      5-min Rain = 0
KQU1 210054Z 16005KT 33/14 A2969 RMK A01 T03310136  RH  031%=      5-min Rain = 0
KQU1 210055Z 16004KT 33/14 A2969 RMK A01 T03310138  RH  031%=      5-min Rain = 0
KQU1 210056Z 16005KT 33/15 A2969 RMK A01 T03310145  RH  032%=      5-min Rain = 0
KQU1 210057Z 16005KT 33/14 A2969 RMK A01 T03310141  RH  032%=      5-min Rain = 0
KQU1 210058Z 16004KT 33/14 A2969 RMK A01 T03310144  RH  032%=      5-min Rain = 0
KQU1 210059Z 17003KT 33/15 A2969 RMK A01 T03320145  RH  033%=      5-min Rain = 0
KQU1 210100Z 17003KT 33/15 A2969 RMK A01 T03320154  RH  034%=      5-min Rain = 0
KQU1 210101Z 17004KT 33/16 A297 RMK A01 T03320156  RH  035%=      5-min Rain = 0
KQU1 210102Z 16005KT 33/14 A297 RMK A01 T03310139  RH  031%=      5-min Rain = 0
KQU1 210103Z 16004KT 33/14 A2969 RMK A01 T03310138  RH  031%=      5-min Rain = 0
KQU1 210104Z 16003KT 33/14 A297 RMK A01 T03300137  RH  031%=      5-min Rain = 0
KQU1 210105Z 17004KT 33/13 A297 RMK A01 T03280132  RH  030%=      5-min Rain = 0
KQU1 210106Z 16004KT 33/13 A297 RMK A01 T03280127  RH  030%=      5-min Rain = 0
KQU1 210107Z 16005KT 33/13 A297 RMK A01 T03270129  RH  030%=      5-min Rain = 0
KQU1 210108Z 16004KT 33/13 A297 RMK A01 T03270129  RH  030%=      5-min Rain = 0
KQU1 210109Z 16006KT 33/13 A297 RMK A01 T03270126  RH  030%=      5-min Rain = 0
KQU1 210110Z 16007KT 33/13 A297 RMK A01 T03270130  RH  030%=      5-min Rain = 0
KQU1 210111Z 16006KT 33/13 A297 RMK A01 T03270131  RH  030%=      5-min Rain = 0
KQU1 210112Z 16006KT 33/13 A297 RMK A01 T03250130  RH  030%=      5-min Rain = 0
KQU1 210113Z 16006KT 32/13 A297 RMK A01 T03240125  RH  030%=      5-min Rain = 0
KQU1 210114Z 16006KT 32/13 A297 RMK A01 T03230127  RH  030%=      5-min Rain = 0
KQU1 210115Z 16005KT 32/13 A297 RMK A01 T03220128  RH  031%=      5-min Rain = 0
KQU1 210116Z 17005KT 32/13 A297 RMK A01 T03200126  RH  031%=      5-min Rain = 0
KQU1 210117Z 17005KT 32/13 A297 RMK A01 T03200126  RH  031%=      5-min Rain = 0
KQU1 210118Z 17004KT 32/13 A297 RMK A01 T03190130  RH  032%=      5-min Rain = 0
KQU1 210119Z 18004KT 32/13 A297 RMK A01 T03180130  RH  032%=      5-min Rain = 0
KQU1 210120Z 17004KT 32/13 A297 RMK A01 T03170133  RH  033%=      5-min Rain = 0
KQU1 210121Z 17004KT 32/14 A297 RMK A01 T03170135  RH  033%=      5-min Rain = 0
KQU1 210122Z 16004KT 32/14 A297 RMK A01 T03160136  RH  033%=      5-min Rain = 0
KQU1 210123Z 16004KT 32/13 A297 RMK A01 T03160131  RH  032%=      5-min Rain = 0
KQU1 210124Z 16005KT 32/13 A297 RMK A01 T03150130  RH  032%=      5-min Rain = 0
KQU1 210125Z 16004KT 32/13 A297 RMK A01 T03150132  RH  033%=      5-min Rain = 0
KQU1 210126Z 16005KT 31/13 A297 RMK A01 T03140127  RH  032%=      5-min Rain = 0
KQU1 210127Z 15005KT 31/12 A297 RMK A01 T03140123  RH  031%=      5-min Rain = 0
KQU1 210128Z 16005KT 31/13 A297 RMK A01 T03140125  RH  031%=      5-min Rain = 0
KQU1 210129Z 16004KT 31/13 A297 RMK A01 T03140127  RH  032%=      5-min Rain = 0
KQU1 210130Z 17004KT 31/13 A297 RMK A01 T03130128  RH  032%=      5-min Rain = 0
KQU1 210131Z 16004KT 31/13 A297 RMK A01 T03130125  RH  032%=      5-min Rain = 0
KQU1 210132Z 18003KT 31/13 A297 RMK A01 T03120125  RH  032%=      5-min Rain = 0
KQU1 210133Z 17004KT 31/12 A297 RMK A01 T03120122  RH  031%=      5-min Rain = 0
KQU1 210134Z 16004KT 31/13 A297 RMK A01 T03120127  RH  032%=      5-min Rain = 0
KQU1 210135Z 16004KT 31/13 A297 RMK A01 T03110128  RH  033%=      5-min Rain = 0
KQU1 210136Z 16004KT 31/13 A297 RMK A01 T03090126  RH  033%=      5-min Rain = 0
KQU1 210137Z 16005KT 31/13 A297 RMK A01 T03080127  RH  033%=      5-min Rain = 0
KQU1 210138Z 16005KT 31/13 A297 RMK A01 T03070126  RH  033%=      5-min Rain = 0
KQU1 210139Z 16005KT 31/13 A297 RMK A01 T03060126  RH  033%=      5-min Rain = 0
KQU1 210140Z 16006KT 31/12 A297 RMK A01 T03050124  RH  033%=      5-min Rain = 0
KQU1 210141Z 16005KT 30/12 A297 RMK A01 T03040123  RH  033%=      5-min Rain = 0
KQU1 210142Z 16005KT 30/13 A297 RMK A01 T03040125  RH  033%=      5-min Rain = 0
KQU1 210143Z 17006KT 30/13 A297 RMK A01 T03030125  RH  034%=      5-min Rain = 0
KQU1 210144Z 17006KT 30/12 A297 RMK A01 T03020123  RH  033%=      5-min Rain = 0
KQU1 210145Z 17006KT 30/13 A297 RMK A01 T03010125  RH  034%=      5-min Rain = 0
KQU1 210146Z 17005KT 30/12 A297 RMK A01 T03000124  RH  034%=      5-min Rain = 0
KQU1 210147Z 17005KT 30/12 A297 RMK A01 T02990124  RH  034%=      5-min Rain = 0
KQU1 210148Z 17006KT 30/13 A297 RMK A01 T02990125  RH  034%=      5-min Rain = 0
KQU1 210149Z 17005KT 30/13 A297 RMK A01 T02980127  RH  035%=      5-min Rain = 0
KQU1 210150Z 17005KT 30/13 A297 RMK A01 T02980129  RH  035%=      5-min Rain = 0
KQU1 210151Z 17005KT 30/13 A297 RMK A01 T02970133  RH  036%=      5-min Rain = 0
KQU1 210152Z 16005KT 30/14 A297 RMK A01 T02950135  RH  037%=      5-min Rain = 0
KQU1 210153Z 16006KT 29/13 A297 RMK A01 T02940133  RH  037%=      5-min Rain = 0
KQU1 210154Z 15007KT 29/13 A297 RMK A01 T02930133  RH  038%=      5-min Rain = 0
KQU1 210155Z 15007KT 29/13 A297 RMK A01 T02910134  RH  038%=      5-min Rain = 0
KQU1 210156Z 16007KT 29/13 A297 RMK A01 T02900134  RH  039%=      5-min Rain = 0
KQU1 210157Z 16007KT 29/14 A297 RMK A01 T02880136  RH  039%=      5-min Rain = 0
KQU1 210158Z 16006KT 29/14 A297 RMK A01 T02870138  RH  040%=      5-min Rain = 0
KQU1 210159Z 17006KT 29/14 A297 RMK A01 T02850137  RH  040%=      5-min Rain = 0
KQU1 210200Z 17007KT 28/14 A297 RMK A01 T02840142  RH  042%=      5-min Rain = 0
KQU1 210201Z 16007KT 28/14 A297 RMK A01 T02830138  RH  041%=      5-min Rain = 0
KQU1 210202Z 17006KT 28/14 A297 RMK A01 T02830135  RH  040%=      5-min Rain = 0
KQU1 210203Z 17006KT 28/14 A297 RMK A01 T02830139  RH  041%=      5-min Rain = 0
KQU1 210204Z 17006KT 28/14 A297 RMK A01 T02820139  RH  041%=      5-min Rain = 0
KQU1 210205Z 16007KT 28/14 A297 RMK A01 T02810136  RH  041%=      5-min Rain = 0
KQU1 210206Z 17007KT 28/14 A297 RMK A01 T02810137  RH  041%=      5-min Rain = 0
KQU1 210207Z 17007KT 28/14 A297 RMK A01 T02800135  RH  041%=      5-min Rain = 0
KQU1 210208Z 17008KT 28/13 A297 RMK A01 T02810129  RH  039%=      5-min Rain = 0
KQU1 210209Z 17009KT 28/13 A297 RMK A01 T02820130  RH  039%=      5-min Rain = 0
KQU1 210210Z 18009KT 28/13 A297 RMK A01 T02820129  RH  039%=      5-min Rain = 0
KQU1 210211Z 17009KT 28/13 A297 RMK A01 T02820128  RH  039%=      5-min Rain = 0
KQU1 210212Z 17009KT 28/13 A2971 RMK A01 T02820125  RH  038%=      5-min Rain = 0
KQU1 210213Z 17009KT 28/13 A297 RMK A01 T02810125  RH  038%=      5-min Rain = 0
KQU1 210214Z 18008KT 28/12 A297 RMK A01 T02810123  RH  038%=      5-min Rain = 0
KQU1 210215Z 18008KT 28/12 A297 RMK A01 T02810121  RH  037%=      5-min Rain = 0
KQU1 210216Z 18008KT 28/12 A297 RMK A01 T02820122  RH  037%=      5-min Rain = 0
KQU1 210217Z 18007KT 28/12 A2971 RMK A01 T02820122  RH  037%=      5-min Rain = 0
KQU1 210218Z 18006KT 28/13 A2971 RMK A01 T02810125  RH  038%=      5-min Rain = 0
KQU1 210219Z 18006KT 28/13 A2971 RMK A01 T02790128  RH  039%=      5-min Rain = 0
KQU1 210220Z 19006KT 28/13 A2971 RMK A01 T02770130  RH  040%=      5-min Rain = 0
KQU1 210221Z 19007KT 27/13 A2971 RMK A01 T02740132  RH  041%=      5-min Rain = 0
KQU1 210222Z 20007KT 27/13 A2971 RMK A01 T02720134  RH  043%=      5-min Rain = 0
KQU1 210223Z 20008KT 27/13 A2971 RMK A01 T02690134  RH  043%=      5-min Rain = 0
KQU1 210224Z 20008KT 27/13 A2971 RMK A01 T02670133  RH  044%=      5-min Rain = 0
KQU1 210225Z 20008KT 27/13 A2971 RMK A01 T02650132  RH  044%=      5-min Rain = 0
KQU1 210226Z 21008KT 26/13 A2971 RMK A01 T02640134  RH  045%=      5-min Rain = 0
KQU1 210227Z 21008KT 26/13 A2971 RMK A01 T02620133  RH  045%=      5-min Rain = 0
KQU1 210228Z 21009KT 26/13 A2971 RMK A01 T02610132  RH  045%=      5-min Rain = 0
KQU1 210229Z 20009KT 26/13 A2971 RMK A01 T02610129  RH  044%=      5-min Rain = 0
KQU1 210230Z 20009KT 26/13 A2971 RMK A01 T02610127  RH  043%=      5-min Rain = 0
KQU1 210231Z 21008KT 26/13 A2971 RMK A01 T02620127  RH  043%=      5-min Rain = 0
KQU1 210232Z 20008KT 26/13 A2971 RMK A01 T02620128  RH  043%=      5-min Rain = 0
KQU1 210233Z 20008KT 26/13 A2971 RMK A01 T02620128  RH  043%=      5-min Rain = 0
KQU1 210234Z 21008KT 26/13 A2971 RMK A01 T02610129  RH  044%=      5-min Rain = 0
KQU1 210235Z 21008KT 26/13 A2971 RMK A01 T02610128  RH  044%=      5-min Rain = 0
KQU1 210236Z 21009KT 26/13 A2971 RMK A01 T02610126  RH  043%=      5-min Rain = 0
KQU1 210237Z 21009KT 26/13 A2971 RMK A01 T02610126  RH  043%=      5-min Rain = 0
KQU1 210238Z 21008KT 26/13 A2971 RMK A01 T02610126  RH  043%=      5-min Rain = 0
KQU1 210239Z 21008KT 26/13 A2971 RMK A01 T02610125  RH  043%=      5-min Rain = 0
KQU1 210240Z 21009KT 26/13 A2971 RMK A01 T02610127  RH  043%=      5-min Rain = 0
KQU1 210241Z 21009KT 26/13 A2971 RMK A01 T02600125  RH  043%=      5-min Rain = 0
KQU1 210242Z 20009KT 26/13 A2971 RMK A01 T02600126  RH  043%=      5-min Rain = 0
KQU1 210243Z 20008KT 26/13 A2971 RMK A01 T02590126  RH  044%=      5-min Rain = 0
KQU1 210244Z 20009KT 26/13 A2971 RMK A01 T02590125  RH  043%=      5-min Rain = 0
KQU1 210245Z 20010KT 26/12 A2971 RMK A01 T02600123  RH  043%=      5-min Rain = 0
KQU1 210246Z 20010KT 26/12 A2971 RMK A01 T02600123  RH  042%=      5-min Rain = 0
KQU1 210247Z 19010KT 26/12 A2971 RMK A01 T02600120  RH  042%=      5-min Rain = 0
KQU1 210248Z 19010KT 26/12 A2971 RMK A01 T02610116  RH  040%=      5-min Rain = 0
KQU1 210249Z 19010KT 26/12 A2971 RMK A01 T02620115  RH  040%=      5-min Rain = 0
KQU1 210250Z 19010KT 26/12 A2971 RMK A01 T02630115  RH  040%=      5-min Rain = 0
KQU1 210251Z 19009KT 26/12 A2971 RMK A01 T02630117  RH  040%=      5-min Rain = 0
KQU1 210252Z 20008KT 26/12 A2971 RMK A01 T02620119  RH  041%=      5-min Rain = 0
KQU1 210253Z 20008KT 26/12 A2971 RMK A01 T02600121  RH  042%=      5-min Rain = 0
KQU1 210254Z 20008KT 26/12 A2971 RMK A01 T02580123  RH  043%=      5-min Rain = 0
KQU1 210255Z 21008KT 26/13 A2971 RMK A01 T02570125  RH  044%=      5-min Rain = 0
KQU1 210256Z 21007KT 26/13 A2971 RMK A01 T02550128  RH  045%=      5-min Rain = 0
KQU1 210257Z 21008KT 25/13 A2971 RMK A01 T02520131  RH  047%=      5-min Rain = 0
KQU1 210258Z 21008KT 25/13 A2971 RMK A01 T02490132  RH  048%=      5-min Rain = 0
KQU1 210259Z 21008KT 25/13 A2971 RMK A01 T02470134  RH  049%=      5-min Rain = 0
KQU1 210300Z 21008KT 25/14 A2971 RMK A01 T02460135  RH  050%=      5-min Rain = 0
KQU1 210301Z 21009KT 24/14 A2971 RMK A01 T02440135  RH  051%=      5-min Rain = 0
KQU1 210302Z 21009KT 24/14 A2971 RMK A01 T02430135  RH  051%=      5-min Rain = 0
KQU1 210303Z 21009KT 24/13 A2971 RMK A01 T02430134  RH  050%=      5-min Rain = 0
KQU1 210304Z 21009KT 24/13 A2971 RMK A01 T02440134  RH  050%=      5-min Rain = 0
KQU1 210305Z 21008KT 24/13 A2971 RMK A01 T02440134  RH  050%=      5-min Rain = 0
KQU1 210306Z 21008KT 24/13 A2971 RMK A01 T02440134  RH  050%=      5-min Rain = 0
KQU1 210307Z 21009KT 24/14 A2971 RMK A01 T02440135  RH  050%=      5-min Rain = 0
KQU1 210308Z 21009KT 24/13 A2971 RMK A01 T02430134  RH  051%=      5-min Rain = 0
KQU1 210309Z 21010KT 24/13 A2971 RMK A01 T02430134  RH  050%=      5-min Rain = 0
KQU1 210310Z 21010KT 24/13 A2972 RMK A01 T02430133  RH  050%=      5-min Rain = 0
KQU1 210311Z 22010KT 24/13 A2971 RMK A01 T02430131  RH  050%=      5-min Rain = 0
KQU1 210312Z 22010KT 24/13 A2972 RMK A01 T02440131  RH  049%=      5-min Rain = 0
KQU1 210313Z 22010KT 24/13 A2972 RMK A01 T02440130  RH  049%=      5-min Rain = 0
KQU1 210314Z 22010KT 25/13 A2971 RMK A01 T02450128  RH  048%=      5-min Rain = 0
KQU1 210315Z 22010KT 25/13 A2972 RMK A01 T02450128  RH  048%=      5-min Rain = 0
KQU1 210316Z 22010KT 25/13 A2972 RMK A01 T02450127  RH  048%=      5-min Rain = 0
KQU1 210317Z 22010KT 25/13 A2972 RMK A01 T02450126  RH  047%=      5-min Rain = 0
KQU1 210318Z 22010KT 25/12 A2972 RMK A01 T02460122  RH  046%=      5-min Rain = 0
KQU1 210319Z 22010KT 25/12 A2972 RMK A01 T02460119  RH  045%=      5-min Rain = 0
KQU1 210320Z 22010KT 25/12 A2972 RMK A01 T02480116  RH  044%=      5-min Rain = 0
KQU1 210321Z 22010KT 25/11 A2972 RMK A01 T02490114  RH  043%=      5-min Rain = 0
KQU1 210322Z 22011KT 25/11 A2972 RMK A01 T02500114  RH  042%=      5-min Rain = 0
KQU1 210323Z 22010KT 25/11 A2972 RMK A01 T02500112  RH  042%=      5-min Rain = 0
KQU1 210324Z 22010KT 25/11 A2972 RMK A01 T02500111  RH  042%=      5-min Rain = 0
KQU1 210325Z 22010KT 25/11 A2972 RMK A01 T02510109  RH  041%=      5-min Rain = 0
KQU1 210326Z 22010KT 25/11 A2972 RMK A01 T02510107  RH  040%=      5-min Rain = 0
KQU1 210327Z 22011KT 25/11 A2972 RMK A01 T02520106  RH  040%=      5-min Rain = 0
KQU1 210328Z 22011KT 25/11 A2972 RMK A01 T02530106  RH  040%=      5-min Rain = 0
KQU1 210329Z 22011KT 25/10 A2972 RMK A01 T02540100  RH  038%=      5-min Rain = 0
KQU1 210330Z 22011KT 26/10 A2972 RMK A01 T02550099  RH  037%=      5-min Rain = 0
KQU1 210331Z 22011KT 26/10 A2972 RMK A01 T02560099  RH  037%=      5-min Rain = 0
KQU1 210332Z 22011KT 26/10 A2972 RMK A01 T02560098  RH  037%=      5-min Rain = 0
KQU1 210333Z 22011KT 26/10 A2972 RMK A01 T02560097  RH  037%=      5-min Rain = 0
KQU1 210334Z 22010KT 26/10 A2972 RMK A01 T02560096  RH  036%=      5-min Rain = 0
KQU1 210335Z 22011KT 26/09 A2972 RMK A01 T02570092  RH  035%=      5-min Rain = 0
KQU1 210336Z 22010KT 26/10 A2972 RMK A01 T02580095  RH  036%=      5-min Rain = 0
KQU1 210337Z 22010KT 26/10 A2972 RMK A01 T02570095  RH  036%=      5-min Rain = 0
KQU1 210338Z 22009KT 26/09 A2972 RMK A01 T02570094  RH  036%=      5-min Rain = 0
KQU1 210339Z 22010KT 26/09 A2972 RMK A01 T02570093  RH  036%=      5-min Rain = 0
KQU1 210340Z 22010KT 26/09 A2972 RMK A01 T02560093  RH  036%=      5-min Rain = 0
KQU1 210341Z 22010KT 26/09 A2972 RMK A01 T02560092  RH  035%=      5-min Rain = 0
KQU1 210342Z 22010KT 26/09 A2973 RMK A01 T02560093  RH  036%=      5-min Rain = 0
KQU1 210343Z 22010KT 26/09 A2973 RMK A01 T02550094  RH  036%=      5-min Rain = 0
KQU1 210344Z 22010KT 25/09 A2972 RMK A01 T02540094  RH  036%=      5-min Rain = 0
KQU1 210345Z 22010KT 25/09 A2972 RMK A01 T02530093  RH  036%=      5-min Rain = 0
KQU1 210346Z 22010KT 25/09 A2972 RMK A01 T02540092  RH  036%=      5-min Rain = 0
KQU1 210347Z 21010KT 26/09 A2973 RMK A01 T02550086  RH  034%=      5-min Rain = 0
KQU1 210348Z 22010KT 26/09 A2973 RMK A01 T02560089  RH  035%=      5-min Rain = 0
KQU1 210349Z 21010KT 26/09 A2973 RMK A01 T02560091  RH  035%=      5-min Rain = 0
KQU1 210350Z 21009KT 26/09 A2973 RMK A01 T02550089  RH  035%=      5-min Rain = 0
KQU1 210351Z 22010KT 26/09 A2973 RMK A01 T02550087  RH  034%=      5-min Rain = 0
KQU1 210352Z 22011KT 26/09 A2973 RMK A01 T02560085  RH  034%=      5-min Rain = 0
KQU1 210353Z 22010KT 26/08 A2973 RMK A01 T02570083  RH  033%=      5-min Rain = 0
KQU1 210354Z 21010KT 26/08 A2973 RMK A01 T02590081  RH  032%=      5-min Rain = 0
KQU1 210355Z 21009KT 26/08 A2973 RMK A01 T02600082  RH  032%=      5-min Rain = 0
KQU1 210356Z 21010KT 26/08 A2973 RMK A01 T02600083  RH  033%=      5-min Rain = 0
KQU1 210357Z 21010KT 26/08 A2973 RMK A01 T02600081  RH  032%=      5-min Rain = 0
KQU1 210358Z 21009KT 26/08 A2973 RMK A01 T02620077  RH  031%=      5-min Rain = 0
KQU1 210359Z 21011KT 26/08 A2973 RMK A01 T02630078  RH  031%=      5-min Rain = 0
KQU1 210400Z 21010KT 26/08 A2973 RMK A01 T02630079  RH  031%=      5-min Rain = 0
KQU1 210401Z 20010KT 26/08 A2973 RMK A01 T02630080  RH  031%=      5-min Rain = 0
KQU1 210402Z 20009KT 26/08 A2973 RMK A01 T02630079  RH  031%=      5-min Rain = 0
KQU1 210403Z 20009KT 26/08 A2973 RMK A01 T02620079  RH  031%=      5-min Rain = 0
KQU1 210404Z 21010KT 26/08 A2973 RMK A01 T02620079  RH  031%=      5-min Rain = 0
KQU1 210405Z 21010KT 26/08 A2973 RMK A01 T02610079  RH  032%=      5-min Rain = 0
KQU1 210406Z 20010KT 26/08 A2973 RMK A01 T02610078  RH  031%=      5-min Rain = 0
KQU1 210407Z 20010KT 26/08 A2973 RMK A01 T02610078  RH  031%=      5-min Rain = 0
KQU1 210408Z 20009KT 26/08 A2973 RMK A01 T02610078  RH  031%=      5-min Rain = 0
KQU1 210409Z 20009KT 26/08 A2973 RMK A01 T02610078  RH  031%=      5-min Rain = 0
KQU1 210410Z 20009KT 26/08 A2973 RMK A01 T02610079  RH  032%=      5-min Rain = 0
KQU1 210411Z 20009KT 26/08 A2973 RMK A01 T02600078  RH  031%=      5-min Rain = 0
KQU1 210412Z 20010KT 26/08 A2973 RMK A01 T02600080  RH  032%=      5-min Rain = 0
KQU1 210413Z 20010KT 26/08 A2973 RMK A01 T02590080  RH  032%=      5-min Rain = 0
KQU1 210414Z 20010KT 26/08 A2973 RMK A01 T02590080  RH  032%=      5-min Rain = 0
KQU1 210415Z 20010KT 26/08 A2973 RMK A01 T02580082  RH  033%=      5-min Rain = 0
KQU1 210416Z 20010KT 26/08 A2973 RMK A01 T02570083  RH  033%=      5-min Rain = 0
KQU1 210417Z 20010KT 26/08 A2973 RMK A01 T02560082  RH  033%=      5-min Rain = 0
KQU1 210418Z 20009KT 26/08 A2973 RMK A01 T02550084  RH  034%=      5-min Rain = 0
KQU1 210419Z 20010KT 25/09 A2973 RMK A01 T02530085  RH  034%=      5-min Rain = 0
KQU1 210420Z 19010KT 25/09 A2973 RMK A01 T02520085  RH  035%=      5-min Rain = 0
KQU1 210421Z 20010KT 25/08 A2973 RMK A01 T02520084  RH  035%=      5-min Rain = 0
KQU1 210422Z 20010KT 25/08 A2973 RMK A01 T02520084  RH  034%=      5-min Rain = 0
KQU1 210423Z 20009KT 25/08 A2973 RMK A01 T02520084  RH  034%=      5-min Rain = 0
KQU1 210424Z 20009KT 25/09 A2973 RMK A01 T02510085  RH  035%=      5-min Rain = 0
KQU1 210425Z 20009KT 25/09 A2973 RMK A01 T02500086  RH  035%=      5-min Rain = 0
KQU1 210426Z 20009KT 25/09 A2973 RMK A01 T02490087  RH  036%=      5-min Rain = 0
KQU1 210427Z 20009KT 25/09 A2973 RMK A01 T02490086  RH  036%=      5-min Rain = 0
KQU1 210428Z 20008KT 25/09 A2973 RMK A01 T02480087  RH  036%=      5-min Rain = 0
KQU1 210429Z 20009KT 25/09 A2973 RMK A01 T02470086  RH  036%=      5-min Rain = 0
KQU1 210430Z 20009KT 25/08 A2973 RMK A01 T02480084  RH  035%=      5-min Rain = 0
KQU1 210431Z 20009KT 25/08 A2973 RMK A01 T02490082  RH  034%=      5-min Rain = 0
KQU1 210432Z 20008KT 25/08 A2973 RMK A01 T02510081  RH  034%=      5-min Rain = 0
KQU1 210433Z 20010KT 25/08 A2973 RMK A01 T02510080  RH  034%=      5-min Rain = 0
KQU1 210434Z 21009KT 25/08 A2973 RMK A01 T02510082  RH  034%=      5-min Rain = 0
KQU1 210435Z 20009KT 25/08 A2973 RMK A01 T02510082  RH  034%=      5-min Rain = 0
KQU1 210436Z 20010KT 25/08 A2973 RMK A01 T02510080  RH  033%=      5-min Rain = 0
KQU1 210437Z 20010KT 25/08 A2973 RMK A01 T02520080  RH  033%=      5-min Rain = 0
KQU1 210438Z 20009KT 25/08 A2973 RMK A01 T02530078  RH  033%=      5-min Rain = 0
KQU1 210439Z 21009KT 25/08 A2973 RMK A01 T02540079  RH  033%=      5-min Rain = 0
KQU1 210440Z 20009KT 25/08 A2973 RMK A01 T02540080  RH  033%=      5-min Rain = 0
KQU1 210441Z 21009KT 25/08 A2973 RMK A01 T02530079  RH  033%=      5-min Rain = 0
KQU1 210442Z 21009KT 25/08 A2973 RMK A01 T02520083  RH  034%=      5-min Rain = 0
KQU1 210443Z 21010KT 25/08 A2973 RMK A01 T02500084  RH  035%=      5-min Rain = 0
KQU1 210444Z 20009KT 25/08 A2973 RMK A01 T02490084  RH  035%=      5-min Rain = 0
KQU1 210445Z 20009KT 25/08 A2973 RMK A01 T02490084  RH  035%=      5-min Rain = 0
KQU1 210446Z 21010KT 25/08 A2973 RMK A01 T02490084  RH  035%=      5-min Rain = 0
KQU1 210447Z 20010KT 25/08 A2973 RMK A01 T02500083  RH  035%=      5-min Rain = 0
KQU1 210448Z 20010KT 25/08 A2973 RMK A01 T02520080  RH  033%=      5-min Rain = 0
KQU1 210449Z 21009KT 26/08 A2973 RMK A01 T02550083  RH  034%=      5-min Rain = 0
KQU1 210450Z 21009KT 26/08 A2973 RMK A01 T02550083  RH  034%=      5-min Rain = 0
KQU1 210451Z 21009KT 25/09 A2973 RMK A01 T02540086  RH  034%=      5-min Rain = 0
KQU1 210452Z 22009KT 25/09 A2973 RMK A01 T02530088  RH  035%=      5-min Rain = 0
KQU1 210453Z 22010KT 25/09 A2973 RMK A01 T02520090  RH  036%=      5-min Rain = 0
KQU1 210454Z 22009KT 25/09 A2973 RMK A01 T02510092  RH  036%=      5-min Rain = 0
KQU1 210455Z 22010KT 25/09 A2973 RMK A01 T02510092  RH  037%=      5-min Rain = 0
KQU1 210456Z 22010KT 25/09 A2973 RMK A01 T02520091  RH  036%=      5-min Rain = 0
KQU1 210457Z 22011KT 25/09 A2973 RMK A01 T02540090  RH  035%=      5-min Rain = 0
KQU1 210458Z 22011KT 26/09 A2973 RMK A01 T02550092  RH  035%=      5-min Rain = 0
KQU1 210459Z 22011KT 26/09 A2973 RMK A01 T02560092  RH  035%=      5-min Rain = 0

Page generated in 0.0753 seconds.